Observation data for Fort McKavett on 03/01/2021      Previous  Date  Next       Current Mesonet Observations  Soil Data  Daily Summary Page  Observations in Plain Language
KMC1 010600Z 02011KT 11/M01 A3002 RMK A01 T01061011  RH  044%=      5-min Rain = 0
KMC1 010601Z 03011KT 11/M01 A3002 RMK A01 T01061010  RH  045%=      5-min Rain = 0
KMC1 010602Z 03013KT 11/M01 A3002 RMK A01 T01061010  RH  044%=      5-min Rain = 0
KMC1 010603Z 04014G21KT 11/M01 A3002 RMK A01 T01061011  RH  044%=      5-min Rain = 0
KMC1 010604Z 04013KT 11/M01 A3002 RMK A01 T01061012  RH  044%=      5-min Rain = 0
KMC1 010605Z 03013KT 11/M01 A3002 RMK A01 T01061011  RH  044%=      5-min Rain = 0
KMC1 010606Z 03010G17KT 11/M01 A3002 RMK A01 T01061010  RH  044%=      5-min Rain = 0
KMC1 010607Z 03012KT 11/M01 A3002 RMK A01 T01061011  RH  044%=      5-min Rain = 0
KMC1 010608Z 04012G17KT 11/M01 A3002 RMK A01 T01051010  RH  045%=      5-min Rain = 0
KMC1 010609Z 03011KT 11/M01 A3002 RMK A01 T01051011  RH  044%=      5-min Rain = 0
KMC1 010610Z 05012G18KT 11/M01 A3002 RMK A01 T01061011  RH  044%=      5-min Rain = 0
KMC1 010611Z 03014KT 11/M01 A3002 RMK A01 T01051010  RH  045%=      5-min Rain = 0
KMC1 010612Z 03015KT 11/M01 A3002 RMK A01 T01051011  RH  044%=      5-min Rain = 0
KMC1 010613Z 03017KT 11/M01 A3002 RMK A01 T01051011  RH  044%=      5-min Rain = 0
KMC1 010614Z 04016G21KT 11/M01 A3002 RMK A01 T01051012  RH  044%=      5-min Rain = 0
KMC1 010615Z 04014KT 11/M01 A3002 RMK A01 T01051012  RH  044%=      5-min Rain = 0
KMC1 010616Z 04014KT 11/M01 A3002 RMK A01 T01051012  RH  044%=      5-min Rain = 0
KMC1 010617Z 04011KT 11/M01 A3003 RMK A01 T01051011  RH  044%=      5-min Rain = 0
KMC1 010618Z 04009KT 11/M01 A3002 RMK A01 T01051010  RH  045%=      5-min Rain = 0
KMC1 010619Z 04014KT 11/M01 A3002 RMK A01 T01051010  RH  045%=      5-min Rain = 0
KMC1 010620Z 04012KT 11/M01 A3002 RMK A01 T01051010  RH  045%=      5-min Rain = 0
KMC1 010621Z 04015KT 11/M01 A3002 RMK A01 T01051011  RH  045%=      5-min Rain = 0
KMC1 010622Z 03015KT 11/M01 A3002 RMK A01 T01051012  RH  044%=      5-min Rain = 0
KMC1 010623Z 03016G21KT 11/M01 A3002 RMK A01 T01051012  RH  044%=      5-min Rain = 0
KMC1 010624Z 04013KT 10/M01 A3002 RMK A01 T01041013  RH  044%=      5-min Rain = 0
KMC1 010625Z 03012KT 10/M01 A3002 RMK A01 T01041013  RH  044%=      5-min Rain = 0
KMC1 010626Z 04011KT 11/M01 A3002 RMK A01 T01051012  RH  044%=      5-min Rain = 0
KMC1 010627Z 04011KT 10/M01 A3003 RMK A01 T01041012  RH  044%=      5-min Rain = 0
KMC1 010628Z 04011G22KT 10/M01 A3003 RMK A01 T01041011  RH  045%=      5-min Rain = 0
KMC1 010629Z 04015KT 10/M01 A3003 RMK A01 T01041012  RH  044%=      5-min Rain = 0
KMC1 010630Z 04011G17KT 10/M01 A3003 RMK A01 T01041013  RH  044%=      5-min Rain = 0
KMC1 010631Z 03013G18KT 10/M01 A3003 RMK A01 T01041013  RH  044%=      5-min Rain = 0
KMC1 010632Z 03012G17KT 10/M01 A3003 RMK A01 T01041014  RH  044%=      5-min Rain = 0
KMC1 010633Z 03018KT 10/M01 A3003 RMK A01 T01041014  RH  044%=      5-min Rain = 0
KMC1 010634Z 03014KT 10/M01 A3003 RMK A01 T01041014  RH  044%=      5-min Rain = 0
KMC1 010635Z 03009G14KT 10/M01 A3003 RMK A01 T01041013  RH  044%=      5-min Rain = 0
KMC1 010636Z 03009G14KT 10/M01 A3003 RMK A01 T01031013  RH  044%=      5-min Rain = 0
KMC1 010637Z 04008KT 10/M01 A3003 RMK A01 T01031013  RH  044%=      5-min Rain = 0
KMC1 010638Z 03011G16KT 10/M01 A3003 RMK A01 T01031014  RH  044%=      5-min Rain = 0
KMC1 010639Z 05008KT 10/M02 A3003 RMK A01 T01031015  RH  044%=      5-min Rain = 0
KMC1 010640Z 03009G15KT 10/M01 A3003 RMK A01 T01031013  RH  044%=      5-min Rain = 0
KMC1 010641Z 04011KT 10/M01 A3003 RMK A01 T01031014  RH  044%=      5-min Rain = 0
KMC1 010642Z 04007G13KT 10/M01 A3003 RMK A01 T01031014  RH  044%=      5-min Rain = 0
KMC1 010643Z 04011KT 10/M02 A3003 RMK A01 T01031015  RH  044%=      5-min Rain = 0
KMC1 010644Z 04009KT 10/M02 A3003 RMK A01 T01031016  RH  044%=      5-min Rain = 0
KMC1 010645Z 04009KT 10/M01 A3003 RMK A01 T01021014  RH  044%=      5-min Rain = 0
KMC1 010646Z 03014G19KT 10/M02 A3004 RMK A01 T01021015  RH  044%=      5-min Rain = 0
KMC1 010647Z 03016KT 10/M02 A3003 RMK A01 T01021016  RH  043%=      5-min Rain = 0
KMC1 010648Z 04015G20KT 10/M02 A3003 RMK A01 T01021017  RH  043%=      5-min Rain = 0
KMC1 010649Z 04016KT 10/M02 A3003 RMK A01 T01021017  RH  043%=      5-min Rain = 0
KMC1 010650Z 04017KT 10/M02 A3004 RMK A01 T01021017  RH  043%=      5-min Rain = 0
KMC1 010651Z 04015G20KT 10/M02 A3004 RMK A01 T01021018  RH  043%=      5-min Rain = 0
KMC1 010652Z 05014G19KT 10/M02 A3004 RMK A01 T01011018  RH  043%=      5-min Rain = 0
KMC1 010653Z 04013KT 10/M02 A3004 RMK A01 T01011018  RH  043%=      5-min Rain = 0
KMC1 010654Z 03013KT 10/M02 A3004 RMK A01 T01011018  RH  043%=      5-min Rain = 0
KMC1 010655Z 03011KT 10/M02 A3004 RMK A01 T01011017  RH  044%=      5-min Rain = 0
KMC1 010656Z 04013G20KT 10/M02 A3003 RMK A01 T01011016  RH  044%=      5-min Rain = 0
KMC1 010657Z 03012G18KT 10/M02 A3003 RMK A01 T01011017  RH  044%=      5-min Rain = 0
KMC1 010658Z 04014KT 10/M02 A3003 RMK A01 T01011018  RH  044%=      5-min Rain = 0
KMC1 010659Z 04013KT 10/M02 A3004 RMK A01 T01011018  RH  043%=      5-min Rain = 0
KMC1 010700Z 04011KT 10/M02 A3004 RMK A01 T01011017  RH  044%=      5-min Rain = 0
KMC1 010701Z 04011KT 10/M02 A3004 RMK A01 T01011017  RH  044%=      5-min Rain = 0
KMC1 010702Z 04011G16KT 10/M02 A3004 RMK A01 T01001017  RH  044%=      5-min Rain = 0
KMC1 010703Z 04010KT 10/M02 A3004 RMK A01 T01001017  RH  044%=      5-min Rain = 0
KMC1 010704Z 05010KT 10/M02 A3004 RMK A01 T01001017  RH  044%=      5-min Rain = 0
KMC1 010705Z 04011G17KT 10/M02 A3004 RMK A01 T01001018  RH  044%=      5-min Rain = 0
KMC1 010706Z 03012KT 10/M02 A3004 RMK A01 T01001018  RH  044%=      5-min Rain = 0
KMC1 010707Z 03012G18KT 10/M02 A3004 RMK A01 T01001017  RH  044%=      5-min Rain = 0
KMC1 010708Z 04014KT 10/M02 A3004 RMK A01 T01001018  RH  044%=      5-min Rain = 0
KMC1 010709Z 04012G17KT 10/M02 A3005 RMK A01 T01001019  RH  044%=      5-min Rain = 0
KMC1 010710Z 03015KT 10/M02 A3005 RMK A01 T01001019  RH  043%=      5-min Rain = 0
KMC1 010711Z 03013KT 10/M02 A3005 RMK A01 T01001020  RH  043%=      5-min Rain = 0
KMC1 010712Z 03012KT 10/M02 A3005 RMK A01 T01001020  RH  043%=      5-min Rain = 0
KMC1 010713Z 03010KT 10/M02 A3005 RMK A01 T01001019  RH  043%=      5-min Rain = 0
KMC1 010714Z 03012KT 10/M02 A3005 RMK A01 T01001018  RH  044%=      5-min Rain = 0
KMC1 010715Z 03011KT 10/M02 A3005 RMK A01 T01001019  RH  043%=      5-min Rain = 0
KMC1 010716Z 04009KT 10/M02 A3005 RMK A01 T01001019  RH  043%=      5-min Rain = 0
KMC1 010717Z 04009KT 10/M02 A3005 RMK A01 T00991018  RH  044%=      5-min Rain = 0
KMC1 010718Z 04014KT 10/M02 A3005 RMK A01 T01001018  RH  044%=      5-min Rain = 0
KMC1 010719Z 04014G19KT 10/M02 A3005 RMK A01 T00991020  RH  043%=      5-min Rain = 0
KMC1 010720Z 04015KT 10/M02 A3004 RMK A01 T00991021  RH  043%=      5-min Rain = 0
KMC1 010721Z 03015KT 10/M02 A3004 RMK A01 T00991021  RH  043%=      5-min Rain = 0
KMC1 010722Z 04014G19KT 10/M02 A3004 RMK A01 T00991021  RH  043%=      5-min Rain = 0
KMC1 010723Z 04016G21KT 10/M02 A3004 RMK A01 T00991021  RH  043%=      5-min Rain = 0
KMC1 010724Z 04014G21KT 10/M02 A3004 RMK A01 T00991022  RH  043%=      5-min Rain = 0
KMC1 010725Z 04012KT 10/M02 A3004 RMK A01 T00991021  RH  043%=      5-min Rain = 0
KMC1 010726Z 05012KT 10/M02 A3004 RMK A01 T00991021  RH  043%=      5-min Rain = 0
KMC1 010727Z 04014G19KT 10/M02 A3003 RMK A01 T00991021  RH  043%=      5-min Rain = 0
KMC1 010728Z 05015KT 10/M02 A3003 RMK A01 T00991021  RH  043%=      5-min Rain = 0
KMC1 010729Z 04012KT 10/M02 A3003 RMK A01 T00991021  RH  043%=      5-min Rain = 0
KMC1 010730Z 04015KT 10/M02 A3003 RMK A01 T00991021  RH  043%=      5-min Rain = 0
KMC1 010731Z 03016KT 10/M02 A3003 RMK A01 T00991021  RH  043%=      5-min Rain = 0
KMC1 010732Z 03012G20KT 10/M02 A3003 RMK A01 T00991022  RH  043%=      5-min Rain = 0
KMC1 010733Z 03017KT 10/M02 A3003 RMK A01 T00991020  RH  043%=      5-min Rain = 0
KMC1 010734Z 04017KT 10/M02 A3003 RMK A01 T00991021  RH  043%=      5-min Rain = 0
KMC1 010735Z 04018KT 10/M02 A3003 RMK A01 T00991022  RH  043%=      5-min Rain = 0
KMC1 010736Z 04014KT 10/M02 A3003 RMK A01 T00981022  RH  043%=      5-min Rain = 0
KMC1 010737Z 04012KT 10/M02 A3004 RMK A01 T00981021  RH  043%=      5-min Rain = 0
KMC1 010738Z 05010G15KT 10/M02 A3004 RMK A01 T00981021  RH  043%=      5-min Rain = 0
KMC1 010739Z 04015KT 10/M02 A3004 RMK A01 T00991021  RH  043%=      5-min Rain = 0
KMC1 010740Z 04014G19KT 10/M02 A3004 RMK A01 T00991022  RH  043%=      5-min Rain = 0
KMC1 010741Z 06009KT 10/M02 A3004 RMK A01 T00981021  RH  043%=      5-min Rain = 0
KMC1 010742Z 05009G14KT 10/M02 A3004 RMK A01 T00981020  RH  044%=      5-min Rain = 0
KMC1 010743Z 03009KT 10/M02 A3004 RMK A01 T00991020  RH  043%=      5-min Rain = 0
KMC1 010744Z 04011KT 10/M02 A3004 RMK A01 T00981021  RH  043%=      5-min Rain = 0
KMC1 010745Z 04010KT 10/M02 A3004 RMK A01 T00991021  RH  043%=      5-min Rain = 0
KMC1 010746Z 04012KT 10/M02 A3004 RMK A01 T00991020  RH  043%=      5-min Rain = 0
KMC1 010747Z 03013KT 10/M02 A3004 RMK A01 T00981020  RH  043%=      5-min Rain = 0
KMC1 010748Z 05012KT 10/M02 A3004 RMK A01 T00991020  RH  043%=      5-min Rain = 0
KMC1 010749Z 05014KT 10/M02 A3004 RMK A01 T00991021  RH  043%=      5-min Rain = 0
KMC1 010750Z 04013KT 10/M02 A3004 RMK A01 T00981021  RH  043%=      5-min Rain = 0
KMC1 010751Z 04012KT 10/M02 A3004 RMK A01 T00991020  RH  043%=      5-min Rain = 0
KMC1 010752Z 04012KT 10/M02 A3004 RMK A01 T00991020  RH  044%=      5-min Rain = 0
KMC1 010753Z 04012G17KT 10/M02 A3004 RMK A01 T00991020  RH  043%=      5-min Rain = 0
KMC1 010754Z 04012KT 10/M02 A3004 RMK A01 T00991020  RH  043%=      5-min Rain = 0
KMC1 010755Z 04015KT 10/M02 A3004 RMK A01 T00991020  RH  043%=      5-min Rain = 0
KMC1 010756Z 04012G19KT 10/M02 A3004 RMK A01 T00981020  RH  043%=      5-min Rain = 0
KMC1 010757Z 03009G14KT 10/M02 A3004 RMK A01 T00991020  RH  044%=      5-min Rain = 0
KMC1 010758Z 04006G11KT 10/M02 A3004 RMK A01 T00981020  RH  044%=      5-min Rain = 0
KMC1 010759Z 04010G17KT 10/M02 A3005 RMK A01 T00981018  RH  044%=      5-min Rain = 0
KMC1 010800Z 05009KT 10/M02 A3005 RMK A01 T00981019  RH  044%=      5-min Rain = 0
KMC1 010801Z 05006G11KT 10/M02 A3005 RMK A01 T00981020  RH  044%=      5-min Rain = 0
KMC1 010802Z 05008KT 10/M02 A3005 RMK A01 T00981020  RH  044%=      5-min Rain = 0
KMC1 010803Z 04004G11KT 10/M02 A3005 RMK A01 T00981019  RH  044%=      5-min Rain = 0
KMC1 010804Z 04008KT 10/M02 A3005 RMK A01 T00981019  RH  044%=      5-min Rain = 0
KMC1 010805Z 05012KT 10/M02 A3005 RMK A01 T00981019  RH  044%=      5-min Rain = 0
KMC1 010806Z 04011KT 10/M02 A3005 RMK A01 T00981021  RH  043%=      5-min Rain = 0
KMC1 010807Z 04009KT 10/M02 A3005 RMK A01 T00981019  RH  044%=      5-min Rain = 0
KMC1 010808Z 04010KT 10/M02 A3005 RMK A01 T00981019  RH  044%=      5-min Rain = 0
KMC1 010809Z 04011KT 10/M02 A3005 RMK A01 T00981020  RH  044%=      5-min Rain = 0
KMC1 010810Z 04013KT 10/M02 A3005 RMK A01 T00981019  RH  044%=      5-min Rain = 0
KMC1 010811Z 05015KT 10/M02 A3005 RMK A01 T00981019  RH  044%=      5-min Rain = 0
KMC1 010812Z 04012G17KT 10/M02 A3005 RMK A01 T00981020  RH  044%=      5-min Rain = 0
KMC1 010813Z 04015KT 10/M02 A3005 RMK A01 T00981019  RH  044%=      5-min Rain = 0
KMC1 010814Z 04018KT 10/M02 A3005 RMK A01 T00981020  RH  044%=      5-min Rain = 0
KMC1 010815Z 04012G17KT 10/M02 A3005 RMK A01 T00981020  RH  044%=      5-min Rain = 0
KMC1 010816Z 04011G17KT 10/M02 A3005 RMK A01 T00971020  RH  044%=      5-min Rain = 0
KMC1 010817Z 03014KT 10/M02 A3005 RMK A01 T00971020  RH  044%=      5-min Rain = 0
KMC1 010818Z 05013G18KT 10/M02 A3005 RMK A01 T00971020  RH  044%=      5-min Rain = 0
KMC1 010819Z 04009KT 10/M02 A3005 RMK A01 T00971019  RH  044%=      5-min Rain = 0
KMC1 010820Z 04010KT 10/M02 A3006 RMK A01 T00971019  RH  044%=      5-min Rain = 0
KMC1 010821Z 05012KT 10/M02 A3006 RMK A01 T00971019  RH  044%=      5-min Rain = 0
KMC1 010822Z 04012KT 10/M02 A3006 RMK A01 T00971019  RH  044%=      5-min Rain = 0
KMC1 010823Z 05011G17KT 10/M02 A3006 RMK A01 T00971019  RH  044%=      5-min Rain = 0
KMC1 010824Z 04011KT 10/M02 A3007 RMK A01 T00971020  RH  044%=      5-min Rain = 0
KMC1 010825Z 03011KT 10/M02 A3007 RMK A01 T00971020  RH  044%=      5-min Rain = 0
KMC1 010826Z 03008KT 10/M02 A3007 RMK A01 T00971019  RH  044%=      5-min Rain = 0
KMC1 010827Z 03012KT 10/M02 A3007 RMK A01 T00971018  RH  045%=      5-min Rain = 0
KMC1 010828Z 02010KT 10/M02 A3007 RMK A01 T00971018  RH  045%=      5-min Rain = 0
KMC1 010829Z 03011KT 10/M02 A3007 RMK A01 T00971017  RH  045%=      5-min Rain = 0
KMC1 010830Z 02012G17KT 10/M02 A3007 RMK A01 T00971018  RH  045%=      5-min Rain = 0
KMC1 010831Z 03014KT 10/M02 A3007 RMK A01 T00971018  RH  044%=      5-min Rain = 0
KMC1 010832Z 03013KT 10/M02 A3007 RMK A01 T00971019  RH  044%=      5-min Rain = 0
KMC1 010833Z 02012KT 10/M02 A3007 RMK A01 T00961018  RH  045%=      5-min Rain = 0
KMC1 010834Z 03014KT 10/M02 A3007 RMK A01 T00961018  RH  045%=      5-min Rain = 0
KMC1 010835Z 02016G21KT 10/M02 A3007 RMK A01 T00961019  RH  044%=      5-min Rain = 0
KMC1 010836Z 02017KT 10/M02 A3007 RMK A01 T00961019  RH  044%=      5-min Rain = 0
KMC1 010837Z 03014KT 10/M02 A3007 RMK A01 T00961018  RH  045%=      5-min Rain = 0
KMC1 010838Z 02014G21KT 10/M02 A3007 RMK A01 T00961019  RH  045%=      5-min Rain = 0
KMC1 010839Z 02012G17KT 10/M02 A3008 RMK A01 T00961019  RH  045%=      5-min Rain = 0
KMC1 010840Z 01011G16KT 10/M02 A3009 RMK A01 T00961018  RH  045%=      5-min Rain = 0
KMC1 010841Z 35010G15KT 10/M02 A301 RMK A01 T00961018  RH  045%=      5-min Rain = 0
KMC1 010842Z 36011KT 10/M02 A301 RMK A01 T00961018  RH  045%=      5-min Rain = 0
KMC1 010843Z 00012KT 10/M02 A301 RMK A01 T00961018  RH  045%=      5-min Rain = 0
KMC1 010844Z 01012G18KT 10/M02 A3011 RMK A01 T00961018  RH  045%=      5-min Rain = 0
KMC1 010845Z 36010KT 10/M02 A3011 RMK A01 T00961017  RH  045%=      5-min Rain = 0
KMC1 010846Z 00012KT 10/M02 A3011 RMK A01 T00961016  RH  045%=      5-min Rain = 0
KMC1 010847Z 01015KT 10/M02 A301 RMK A01 T00961017  RH  045%=      5-min Rain = 0
KMC1 010848Z 01019G24KT 10/M02 A301 RMK A01 T00961018  RH  045%=      5-min Rain = 0
KMC1 010849Z 02017KT 10/M02 A301 RMK A01 T00961019  RH  044%=      5-min Rain = 0
KMC1 010850Z 02012KT 10/M02 A301 RMK A01 T00961019  RH  045%=      5-min Rain = 0
KMC1 010851Z 01012KT 10/M02 A301 RMK A01 T00961017  RH  045%=      5-min Rain = 0
KMC1 010852Z 00011G17KT 10/M02 A301 RMK A01 T00961018  RH  045%=      5-min Rain = 0
KMC1 010853Z 36012KT 10/M02 A301 RMK A01 T00961017  RH  045%=      5-min Rain = 0
KMC1 010854Z 35010KT 10/M02 A301 RMK A01 T00951015  RH  046%=      5-min Rain = 0
KMC1 010855Z 36009KT 10/M01 A301 RMK A01 T00951014  RH  047%=      5-min Rain = 0
KMC1 010856Z 35007KT 09/M01 A3011 RMK A01 T00941010  RH  048%=      5-min Rain = 0
KMC1 010857Z 36009KT 09/M01 A3011 RMK A01 T00931007  RH  050%=      5-min Rain = 0
KMC1 010858Z 00010KT 09/M01 A3011 RMK A01 T00921008  RH  050%=      5-min Rain = 0
KMC1 010859Z 01008KT 09/M01 A301 RMK A01 T00921008  RH  050%=      5-min Rain = 0
KMC1 010900Z 01011G16KT 09/M01 A301 RMK A01 T00911005  RH  051%=      5-min Rain = 0
KMC1 010901Z 03014KT 09/M01 A3009 RMK A01 T00901009  RH  050%=      5-min Rain = 0
KMC1 010902Z 02016G21KT 09/M01 A3009 RMK A01 T00901007  RH  051%=      5-min Rain = 0
KMC1 010903Z 03015G20KT 09/M01 A3008 RMK A01 T00901008  RH  050%=      5-min Rain = 0
KMC1 010904Z 03017KT 09/M01 A3008 RMK A01 T00901010  RH  050%=      5-min Rain = 0
KMC1 010905Z 02011KT 09/M01 A3008 RMK A01 T00901009  RH  050%=      5-min Rain = 0
KMC1 010906Z 01008KT 09/M01 A3009 RMK A01 T00901006  RH  051%=      5-min Rain = 0
KMC1 010907Z 00011G17KT 09/M01 A3009 RMK A01 T00891005  RH  052%=      5-min Rain = 0
KMC1 010908Z 35010KT 09/M01 A301 RMK A01 T00891005  RH  052%=      5-min Rain = 0
KMC1 010909Z 34007G12KT 09/M00 A3011 RMK A01 T00881003  RH  053%=      5-min Rain = 0
KMC1 010910Z 34009G14KT 09/M00 A3011 RMK A01 T00881002  RH  053%=      5-min Rain = 0
KMC1 010911Z 34010KT 09/M00 A3011 RMK A01 T00871002  RH  053%=      5-min Rain = 0
KMC1 010912Z 35010KT 09/M00 A3011 RMK A01 T00871002  RH  053%=      5-min Rain = 0
KMC1 010913Z 00011KT 09/M00 A3011 RMK A01 T00871002  RH  054%=      5-min Rain = 0
KMC1 010914Z 01012KT 09/M00 A3011 RMK A01 T00861002  RH  054%=      5-min Rain = 0
KMC1 010915Z 01011KT 09/M00 A301 RMK A01 T00861003  RH  054%=      5-min Rain = 0
KMC1 010916Z 02014KT 09/M00 A301 RMK A01 T00861003  RH  053%=      5-min Rain = 0
KMC1 010917Z 03013KT 09/M00 A301 RMK A01 T00851003  RH  054%=      5-min Rain = 0
KMC1 010918Z 02011KT 09/M00 A301 RMK A01 T00851001  RH  055%=      5-min Rain = 0
KMC1 010919Z 02014KT 08/00 A301 RMK A01 T00840002  RH  056%=      5-min Rain = 0
KMC1 010920Z 01012KT 08/01 A3009 RMK A01 T00820006  RH  059%=      5-min Rain = 0
KMC1 010921Z 01010G15KT 08/01 A301 RMK A01 T00790011  RH  062%=      5-min Rain = 0.01
KMC1 010922Z 01010KT 08/01 A301 RMK A01 T00760014  RH  065%=      5-min Rain = 0.01
KMC1 010923Z 01009G14KT 07/02 A301 RMK A01 T00740018  RH  067%=      5-min Rain = 0.02
KMC1 010924Z 35012KT 07/02 A301 RMK A01 T00720017  RH  068%=      5-min Rain = 0.01
KMC1 010925Z 36014KT 07/02 A301 RMK A01 T00700018  RH  069%=      5-min Rain = 0.01
KMC1 010926Z 00010KT 07/02 A301 RMK A01 T00680021  RH  072%=      5-min Rain = 0
KMC1 010927Z 35009KT 07/03 A3011 RMK A01 T00660026  RH  075%=      5-min Rain = 0.01
KMC1 010928Z 35009KT 07/03 A3011 RMK A01 T00650026  RH  077%=      5-min Rain = 0
KMC1 010929Z 36007KT 06/03 A3011 RMK A01 T00640027  RH  077%=      5-min Rain = 0
KMC1 010930Z 00010KT 06/03 A3011 RMK A01 T00640025  RH  076%=      5-min Rain = 0
KMC1 010931Z 01009KT 06/02 A301 RMK A01 T00640024  RH  075%=      5-min Rain = 0
KMC1 010932Z 01011KT 06/02 A301 RMK A01 T00640024  RH  075%=      5-min Rain = 0
KMC1 010933Z 01013KT 06/02 A301 RMK A01 T00640023  RH  075%=      5-min Rain = 0
KMC1 010934Z 00012KT 06/02 A301 RMK A01 T00630023  RH  075%=      5-min Rain = 0
KMC1 010935Z 01013KT 06/02 A301 RMK A01 T00630023  RH  076%=      5-min Rain = 0
KMC1 010936Z 00011KT 06/02 A301 RMK A01 T00620024  RH  076%=      5-min Rain = 0
KMC1 010937Z 01011KT 06/02 A301 RMK A01 T00620024  RH  076%=      5-min Rain = 0
KMC1 010938Z 01012KT 06/03 A301 RMK A01 T00610026  RH  078%=      5-min Rain = 0
KMC1 010939Z 36011KT 06/03 A3009 RMK A01 T00610027  RH  079%=      5-min Rain = 0
KMC1 010940Z 01011KT 06/03 A301 RMK A01 T00600028  RH  080%=      5-min Rain = 0
KMC1 010941Z 01011KT 06/03 A301 RMK A01 T00600028  RH  080%=      5-min Rain = 0
KMC1 010942Z 02008KT 06/03 A301 RMK A01 T00590029  RH  081%=      5-min Rain = 0.01
KMC1 010943Z 02008KT 06/03 A3011 RMK A01 T00590030  RH  082%=      5-min Rain = 0
KMC1 010944Z 01008KT 06/03 A3011 RMK A01 T00580030  RH  082%=      5-min Rain = 0
KMC1 010945Z 02008KT 06/03 A3011 RMK A01 T00580030  RH  082%=      5-min Rain = 0
KMC1 010946Z 01009KT 06/03 A3011 RMK A01 T00580031  RH  083%=      5-min Rain = 0
KMC1 010947Z 01010KT 06/03 A3011 RMK A01 T00580030  RH  083%=      5-min Rain = 0
KMC1 010948Z 01008KT 06/03 A3011 RMK A01 T00580030  RH  083%=      5-min Rain = 0
KMC1 010949Z 02008KT 06/03 A3011 RMK A01 T00580031  RH  083%=      5-min Rain = 0
KMC1 010950Z 01007KT 06/03 A3011 RMK A01 T00570031  RH  083%=      5-min Rain = 0
KMC1 010951Z 01007KT 06/03 A3011 RMK A01 T00580032  RH  083%=      5-min Rain = 0
KMC1 010952Z 01008KT 06/03 A3011 RMK A01 T00580032  RH  084%=      5-min Rain = 0
KMC1 010953Z 01012KT 06/03 A3011 RMK A01 T00580031  RH  083%=      5-min Rain = 0
KMC1 010954Z 02008KT 06/03 A3011 RMK A01 T00580028  RH  081%=      5-min Rain = 0
KMC1 010955Z 01008KT 06/03 A3011 RMK A01 T00580029  RH  082%=      5-min Rain = 0
KMC1 010956Z 02007G12KT 06/03 A3011 RMK A01 T00580031  RH  083%=      5-min Rain = 0
KMC1 010957Z 02010G15KT 06/03 A3011 RMK A01 T00580032  RH  084%=      5-min Rain = 0
KMC1 010958Z 02012G17KT 06/03 A301 RMK A01 T00580031  RH  083%=      5-min Rain = 0
KMC1 010959Z 02011G17KT 06/03 A301 RMK A01 T00580030  RH  082%=      5-min Rain = 0
KMC1 011000Z 03012KT 06/03 A301 RMK A01 T00580030  RH  082%=      5-min Rain = 0
KMC1 011001Z 03014KT 06/03 A301 RMK A01 T00580028  RH  081%=      5-min Rain = 0
KMC1 011002Z 03011KT 06/03 A3011 RMK A01 T00590027  RH  080%=      5-min Rain = 0
KMC1 011003Z 02009KT 06/03 A301 RMK A01 T00590028  RH  081%=      5-min Rain = 0
KMC1 011004Z 02011KT 06/03 A301 RMK A01 T00590031  RH  082%=      5-min Rain = 0
KMC1 011005Z 03012KT 06/03 A301 RMK A01 T00590030  RH  082%=      5-min Rain = 0
KMC1 011006Z 03014G19KT 06/03 A301 RMK A01 T00590030  RH  081%=      5-min Rain = 0
KMC1 011007Z 03014KT 06/03 A301 RMK A01 T00590029  RH  081%=      5-min Rain = 0
KMC1 011008Z 04016KT 06/03 A301 RMK A01 T00590027  RH  080%=      5-min Rain = 0
KMC1 011009Z 03015KT 06/03 A301 RMK A01 T00590026  RH  079%=      5-min Rain = 0
KMC1 011010Z 03012G18KT 06/03 A301 RMK A01 T00590027  RH  080%=      5-min Rain = 0
KMC1 011011Z 03012KT 06/03 A3009 RMK A01 T00590028  RH  081%=      5-min Rain = 0
KMC1 011012Z 04015G20KT 06/03 A3009 RMK A01 T00590028  RH  081%=      5-min Rain = 0
KMC1 011013Z 03013KT 06/03 A3009 RMK A01 T00590027  RH  080%=      5-min Rain = 0
KMC1 011014Z 04010G16KT 06/03 A301 RMK A01 T00590028  RH  081%=      5-min Rain = 0
KMC1 011015Z 03013KT 06/03 A301 RMK A01 T00590027  RH  080%=      5-min Rain = 0
KMC1 011016Z 04010G17KT 06/03 A301 RMK A01 T00590027  RH  080%=      5-min Rain = 0
KMC1 011017Z 03010KT 06/03 A301 RMK A01 T00590029  RH  081%=      5-min Rain = 0
KMC1 011018Z 03011KT 06/03 A3009 RMK A01 T00590030  RH  082%=      5-min Rain = 0
KMC1 011019Z 03013G18KT 06/03 A3009 RMK A01 T00580028  RH  081%=      5-min Rain = 0
KMC1 011020Z 03012KT 06/03 A301 RMK A01 T00580027  RH  081%=      5-min Rain = 0
KMC1 011021Z 03009KT 06/03 A301 RMK A01 T00580028  RH  081%=      5-min Rain = 0
KMC1 011022Z 03011KT 06/03 A301 RMK A01 T00580029  RH  082%=      5-min Rain = 0
KMC1 011023Z 03016KT 06/03 A301 RMK A01 T00580028  RH  081%=      5-min Rain = 0
KMC1 011024Z 04012G17KT 06/03 A301 RMK A01 T00580027  RH  080%=      5-min Rain = 0
KMC1 011025Z 04013G19KT 06/03 A301 RMK A01 T00590028  RH  081%=      5-min Rain = 0
KMC1 011026Z 04011KT 06/03 A301 RMK A01 T00590028  RH  081%=      5-min Rain = 0
KMC1 011027Z 04011KT 06/03 A301 RMK A01 T00580029  RH  082%=      5-min Rain = 0
KMC1 011028Z 03012KT 06/03 A301 RMK A01 T00580029  RH  082%=      5-min Rain = 0
KMC1 011029Z 04010KT 06/03 A3011 RMK A01 T00580029  RH  082%=      5-min Rain = 0
KMC1 011030Z 04013KT 06/03 A3011 RMK A01 T00580029  RH  082%=      5-min Rain = 0
KMC1 011031Z 04010KT 06/03 A3011 RMK A01 T00580028  RH  081%=      5-min Rain = 0
KMC1 011032Z 03009KT 06/03 A301 RMK A01 T00580029  RH  081%=      5-min Rain = 0
KMC1 011033Z 03011KT 06/03 A301 RMK A01 T00580030  RH  082%=      5-min Rain = 0
KMC1 011034Z 03010KT 06/03 A301 RMK A01 T00580030  RH  082%=      5-min Rain = 0
KMC1 011035Z 04012KT 06/03 A301 RMK A01 T00580030  RH  082%=      5-min Rain = 0
KMC1 011036Z 03015KT 06/03 A301 RMK A01 T00580029  RH  081%=      5-min Rain = 0
KMC1 011037Z 03014G19KT 06/03 A301 RMK A01 T00580027  RH  081%=      5-min Rain = 0
KMC1 011038Z 04012G18KT 06/03 A301 RMK A01 T00580028  RH  081%=      5-min Rain = 0
KMC1 011039Z 03012KT 06/03 A301 RMK A01 T00580028  RH  081%=      5-min Rain = 0
KMC1 011040Z 03011KT 06/03 A301 RMK A01 T00580028  RH  081%=      5-min Rain = 0
KMC1 011041Z 04009KT 06/03 A301 RMK A01 T00580029  RH  081%=      5-min Rain = 0
KMC1 011042Z 04014G19KT 06/03 A301 RMK A01 T00580030  RH  082%=      5-min Rain = 0
KMC1 011043Z 03016KT 06/03 A301 RMK A01 T00580029  RH  081%=      5-min Rain = 0
KMC1 011044Z 03014KT 06/03 A301 RMK A01 T00580027  RH  081%=      5-min Rain = 0
KMC1 011045Z 03013KT 06/03 A301 RMK A01 T00580027  RH  080%=      5-min Rain = 0
KMC1 011046Z 03013KT 06/03 A301 RMK A01 T00580028  RH  081%=      5-min Rain = 0
KMC1 011047Z 03011KT 06/03 A301 RMK A01 T00580027  RH  081%=      5-min Rain = 0
KMC1 011048Z 04012G17KT 06/03 A301 RMK A01 T00580028  RH  081%=      5-min Rain = 0
KMC1 011049Z 03011KT 06/03 A301 RMK A01 T00590029  RH  081%=      5-min Rain = 0
KMC1 011050Z 03011KT 06/03 A301 RMK A01 T00580029  RH  082%=      5-min Rain = 0
KMC1 011051Z 03012KT 06/03 A301 RMK A01 T00580029  RH  082%=      5-min Rain = 0
KMC1 011052Z 03012G17KT 06/03 A301 RMK A01 T00580029  RH  082%=      5-min Rain = 0
KMC1 011053Z 02013G18KT 06/03 A3011 RMK A01 T00580029  RH  082%=      5-min Rain = 0
KMC1 011054Z 03013G20KT 06/03 A3011 RMK A01 T00580029  RH  081%=      5-min Rain = 0
KMC1 011055Z 02010G15KT 06/03 A3011 RMK A01 T00580028  RH  081%=      5-min Rain = 0
KMC1 011056Z 03011KT 06/03 A3011 RMK A01 T00580030  RH  082%=      5-min Rain = 0
KMC1 011057Z 02010KT 06/03 A3011 RMK A01 T00580029  RH  082%=      5-min Rain = 0
KMC1 011058Z 03014KT 06/03 A3011 RMK A01 T00580029  RH  082%=      5-min Rain = 0
KMC1 011059Z 03016G22KT 06/03 A3011 RMK A01 T00580027  RH  081%=      5-min Rain = 0
KMC1 011100Z 02017G22KT 06/03 A3011 RMK A01 T00580027  RH  080%=      5-min Rain = 0
KMC1 011101Z 03015G20KT 06/03 A3012 RMK A01 T00580026  RH  080%=      5-min Rain = 0
KMC1 011102Z 03014G19KT 06/03 A3012 RMK A01 T00590027  RH  080%=      5-min Rain = 0
KMC1 011103Z 03014KT 06/03 A3012 RMK A01 T00590028  RH  081%=      5-min Rain = 0
KMC1 011104Z 03017KT 06/03 A3012 RMK A01 T00590028  RH  081%=      5-min Rain = 0
KMC1 011105Z 03014G19KT 06/03 A3012 RMK A01 T00590028  RH  081%=      5-min Rain = 0
KMC1 011106Z 03013G19KT 06/03 A3012 RMK A01 T00590028  RH  081%=      5-min Rain = 0
KMC1 011107Z 03012G17KT 06/03 A3012 RMK A01 T00590028  RH  081%=      5-min Rain = 0
KMC1 011108Z 03018KT 06/03 A3012 RMK A01 T00590028  RH  081%=      5-min Rain = 0
KMC1 011109Z 03015KT 06/03 A3012 RMK A01 T00590026  RH  080%=      5-min Rain = 0
KMC1 011110Z 03013KT 06/03 A3012 RMK A01 T00580027  RH  080%=      5-min Rain = 0
KMC1 011111Z 03013G18KT 06/03 A3012 RMK A01 T00590027  RH  080%=      5-min Rain = 0
KMC1 011112Z 04015KT 06/03 A3012 RMK A01 T00590027  RH  080%=      5-min Rain = 0
KMC1 011113Z 03016G23KT 06/03 A3012 RMK A01 T00590027  RH  080%=      5-min Rain = 0
KMC1 011114Z 03014KT 06/03 A3012 RMK A01 T00580025  RH  079%=      5-min Rain = 0
KMC1 011115Z 04017G26KT 06/03 A3012 RMK A01 T00580025  RH  079%=      5-min Rain = 0
KMC1 011116Z 03018G23KT 06/03 A3012 RMK A01 T00580025  RH  079%=      5-min Rain = 0
KMC1 011117Z 04015G20KT 06/03 A3012 RMK A01 T00580025  RH  079%=      5-min Rain = 0
KMC1 011118Z 04014KT 06/02 A3012 RMK A01 T00580024  RH  079%=      5-min Rain = 0
KMC1 011119Z 04014G20KT 06/02 A3012 RMK A01 T00580024  RH  079%=      5-min Rain = 0
KMC1 011120Z 04017KT 06/02 A3012 RMK A01 T00580024  RH  078%=      5-min Rain = 0
KMC1 011121Z 04017G22KT 06/02 A3012 RMK A01 T00580023  RH  078%=      5-min Rain = 0
KMC1 011122Z 04015G22KT 06/02 A3013 RMK A01 T00580023  RH  078%=      5-min Rain = 0
KMC1 011123Z 04013G19KT 06/03 A3013 RMK A01 T00580025  RH  079%=      5-min Rain = 0
KMC1 011124Z 04016KT 06/02 A3013 RMK A01 T00580024  RH  079%=      5-min Rain = 0
KMC1 011125Z 03013KT 06/02 A3012 RMK A01 T00580024  RH  079%=      5-min Rain = 0
KMC1 011126Z 04012G17KT 06/03 A3012 RMK A01 T00580025  RH  079%=      5-min Rain = 0
KMC1 011127Z 04018KT 06/02 A3012 RMK A01 T00580024  RH  079%=      5-min Rain = 0
KMC1 011128Z 04017KT 06/02 A3012 RMK A01 T00580023  RH  078%=      5-min Rain = 0
KMC1 011129Z 04015KT 06/02 A3013 RMK A01 T00580023  RH  078%=      5-min Rain = 0
KMC1 011130Z 04012KT 06/02 A3013 RMK A01 T00580024  RH  078%=      5-min Rain = 0
KMC1 011131Z 03018KT 06/02 A3013 RMK A01 T00580024  RH  079%=      5-min Rain = 0
KMC1 011132Z 04016G22KT 06/02 A3013 RMK A01 T00580023  RH  078%=      5-min Rain = 0
KMC1 011133Z 04015G22KT 06/02 A3012 RMK A01 T00580023  RH  078%=      5-min Rain = 0
KMC1 011134Z 04016G21KT 06/02 A3012 RMK A01 T00580023  RH  078%=      5-min Rain = 0
KMC1 011135Z 04014G20KT 06/02 A3012 RMK A01 T00580023  RH  078%=      5-min Rain = 0
KMC1 011136Z 04016G22KT 06/02 A3012 RMK A01 T00580023  RH  078%=      5-min Rain = 0
KMC1 011137Z 04015G21KT 06/02 A3012 RMK A01 T00580024  RH  079%=      5-min Rain = 0
KMC1 011138Z 05012KT 06/02 A3012 RMK A01 T00580024  RH  079%=      5-min Rain = 0
KMC1 011139Z 04010KT 06/02 A3012 RMK A01 T00570024  RH  079%=      5-min Rain = 0
KMC1 011140Z 04012G21KT 06/03 A3013 RMK A01 T00570025  RH  080%=      5-min Rain = 0
KMC1 011141Z 04014G19KT 06/02 A3013 RMK A01 T00570024  RH  079%=      5-min Rain = 0
KMC1 011142Z 04011KT 06/02 A3013 RMK A01 T00570023  RH  079%=      5-min Rain = 0
KMC1 011143Z 04014G21KT 06/02 A3013 RMK A01 T00570023  RH  079%=      5-min Rain = 0
KMC1 011144Z 04012G19KT 06/02 A3013 RMK A01 T00570022  RH  078%=      5-min Rain = 0
KMC1 011145Z 04014G19KT 06/02 A3013 RMK A01 T00570023  RH  078%=      5-min Rain = 0
KMC1 011146Z 04013KT 06/02 A3013 RMK A01 T00570023  RH  079%=      5-min Rain = 0
KMC1 011147Z 04013G19KT 06/02 A3013 RMK A01 T00570023  RH  079%=      5-min Rain = 0
KMC1 011148Z 04016KT 06/02 A3013 RMK A01 T00570022  RH  078%=      5-min Rain = 0
KMC1 011149Z 05015G23KT 06/02 A3013 RMK A01 T00570021  RH  078%=      5-min Rain = 0
KMC1 011150Z 05012KT 06/02 A3013 RMK A01 T00570022  RH  078%=      5-min Rain = 0
KMC1 011151Z 04014G20KT 06/02 A3013 RMK A01 T00570023  RH  078%=      5-min Rain = 0
KMC1 011152Z 04015G21KT 06/02 A3012 RMK A01 T00570021  RH  078%=      5-min Rain = 0
KMC1 011153Z 05013KT 06/02 A3012 RMK A01 T00570021  RH  078%=      5-min Rain = 0
KMC1 011154Z 05014G19KT 06/02 A3012 RMK A01 T00570021  RH  077%=      5-min Rain = 0
KMC1 011155Z 04020G25KT 06/02 A3013 RMK A01 T00570019  RH  077%=      5-min Rain = 0
KMC1 011156Z 05018G24KT 06/02 A3013 RMK A01 T00570019  RH  076%=      5-min Rain = 0
KMC1 011157Z 05013G19KT 06/02 A3013 RMK A01 T00570019  RH  077%=      5-min Rain = 0
KMC1 011158Z 05015G20KT 06/02 A3012 RMK A01 T00570020  RH  077%=      5-min Rain = 0
KMC1 011159Z 05013G18KT 06/02 A3012 RMK A01 T00570021  RH  078%=      5-min Rain = 0
KMC1 011200Z 05013G19KT 06/02 A3012 RMK A01 T00560021  RH  078%=      5-min Rain = 0
KMC1 011201Z 04013G21KT 06/02 A3012 RMK A01 T00560020  RH  078%=      5-min Rain = 0
KMC1 011202Z 05016KT 06/02 A3012 RMK A01 T00560020  RH  077%=      5-min Rain = 0
KMC1 011203Z 05018G23KT 06/02 A3012 RMK A01 T00560019  RH  077%=      5-min Rain = 0
KMC1 011204Z 04019G27KT 06/02 A3012 RMK A01 T00560019  RH  077%=      5-min Rain = 0
KMC1 011205Z 05018G24KT 06/02 A3012 RMK A01 T00560019  RH  077%=      5-min Rain = 0
KMC1 011206Z 05016KT 06/02 A3012 RMK A01 T00560019  RH  077%=      5-min Rain = 0
KMC1 011207Z 05014G19KT 06/02 A3012 RMK A01 T00560019  RH  077%=      5-min Rain = 0
KMC1 011208Z 05010G15KT 06/02 A3012 RMK A01 T00560020  RH  078%=      5-min Rain = 0
KMC1 011209Z 05015G20KT 06/02 A3012 RMK A01 T00560021  RH  078%=      5-min Rain = 0
KMC1 011210Z 05015KT 06/02 A3012 RMK A01 T00560020  RH  078%=      5-min Rain = 0
KMC1 011211Z 05015KT 06/02 A3013 RMK A01 T00550019  RH  077%=      5-min Rain = 0
KMC1 011212Z 05012G17KT 06/02 A3013 RMK A01 T00560019  RH  077%=      5-min Rain = 0
KMC1 011213Z 05011KT 06/02 A3013 RMK A01 T00550020  RH  078%=      5-min Rain = 0
KMC1 011214Z 05015G21KT 06/02 A3013 RMK A01 T00550021  RH  078%=      5-min Rain = 0
KMC1 011215Z 05011G17KT 06/02 A3013 RMK A01 T00550019  RH  078%=      5-min Rain = 0
KMC1 011216Z 05014G22KT 06/02 A3013 RMK A01 T00550020  RH  078%=      5-min Rain = 0
KMC1 011217Z 04014G20KT 06/02 A3013 RMK A01 T00550019  RH  077%=      5-min Rain = 0
KMC1 011218Z 04011KT 06/02 A3014 RMK A01 T00560019  RH  077%=      5-min Rain = 0
KMC1 011219Z 04012G19KT 06/02 A3014 RMK A01 T00550019  RH  078%=      5-min Rain = 0
KMC1 011220Z 05013G19KT 06/02 A3014 RMK A01 T00560020  RH  078%=      5-min Rain = 0
KMC1 011221Z 04010KT 06/02 A3014 RMK A01 T00550019  RH  077%=      5-min Rain = 0
KMC1 011222Z 05016G25KT 06/02 A3014 RMK A01 T00560020  RH  078%=      5-min Rain = 0
KMC1 011223Z 04014G22KT 06/02 A3014 RMK A01 T00560018  RH  077%=      5-min Rain = 0
KMC1 011224Z 04012G20KT 06/02 A3014 RMK A01 T00560018  RH  077%=      5-min Rain = 0
KMC1 011225Z 05017G24KT 06/02 A3014 RMK A01 T00550018  RH  077%=      5-min Rain = 0
KMC1 011226Z 05017G23KT 06/02 A3014 RMK A01 T00550018  RH  077%=      5-min Rain = 0
KMC1 011227Z 05014G19KT 06/02 A3014 RMK A01 T00550018  RH  077%=      5-min Rain = 0
KMC1 011228Z 05014G19KT 06/02 A3015 RMK A01 T00550019  RH  078%=      5-min Rain = 0
KMC1 011229Z 04007KT 05/02 A3015 RMK A01 T00540021  RH  079%=      5-min Rain = 0
KMC1 011230Z 04007G12KT 05/02 A3015 RMK A01 T00530024  RH  081%=      5-min Rain = 0.01
KMC1 011231Z 05009G14KT 05/03 A3015 RMK A01 T00520026  RH  083%=      5-min Rain = 0.01
KMC1 011232Z 04013G18KT 05/03 A3015 RMK A01 T00510027  RH  084%=      5-min Rain = 0.01
KMC1 011233Z 05012G18KT 05/03 A3015 RMK A01 T00500025  RH  084%=      5-min Rain = 0
KMC1 011234Z 05012KT 05/03 A3015 RMK A01 T00490026  RH  085%=      5-min Rain = 0
KMC1 011235Z 05012G18KT 05/03 A3015 RMK A01 T00480027  RH  086%=      5-min Rain = 0
KMC1 011236Z 05008G14KT 05/03 A3015 RMK A01 T00470029  RH  088%=      5-min Rain = 0.01
KMC1 011237Z 04009KT 05/03 A3015 RMK A01 T00470030  RH  089%=      5-min Rain = 0
KMC1 011238Z 05009G14KT 05/03 A3015 RMK A01 T00460030  RH  089%=      5-min Rain = 0
KMC1 011239Z 05009KT 05/03 A3015 RMK A01 T00460030  RH  089%=      5-min Rain = 0
KMC1 011240Z 04013G18KT 05/03 A3014 RMK A01 T00460031  RH  090%=      5-min Rain = 0
KMC1 011241Z 04014KT 05/03 A3014 RMK A01 T00460029  RH  089%=      5-min Rain = 0
KMC1 011242Z 04020G27KT 05/03 A3014 RMK A01 T00460028  RH  088%=      5-min Rain = 0
KMC1 011243Z 04016G21KT 05/03 A3014 RMK A01 T00460027  RH  087%=      5-min Rain = 0
KMC1 011244Z 04015KT 05/03 A3015 RMK A01 T00470027  RH  087%=      5-min Rain = 0
KMC1 011245Z 04013KT 05/03 A3015 RMK A01 T00470027  RH  087%=      5-min Rain = 0
KMC1 011246Z 03012G17KT 05/03 A3015 RMK A01 T00470028  RH  088%=      5-min Rain = 0
KMC1 011247Z 04014KT 05/03 A3015 RMK A01 T00470028  RH  088%=      5-min Rain = 0
KMC1 011248Z 04014KT 05/03 A3016 RMK A01 T00470029  RH  088%=      5-min Rain = 0
KMC1 011249Z 04012KT 05/03 A3016 RMK A01 T00470029  RH  088%=      5-min Rain = 0
KMC1 011250Z 04013KT 05/03 A3016 RMK A01 T00470029  RH  089%=      5-min Rain = 0
KMC1 011251Z 05013G18KT 05/03 A3016 RMK A01 T00470030  RH  089%=      5-min Rain = 0
KMC1 011252Z 04012G17KT 05/03 A3016 RMK A01 T00470030  RH  089%=      5-min Rain = 0
KMC1 011253Z 04012KT 05/03 A3017 RMK A01 T00470030  RH  089%=      5-min Rain = 0
KMC1 011254Z 04012KT 05/03 A3017 RMK A01 T00460030  RH  089%=      5-min Rain = 0
KMC1 011255Z 04011G16KT 05/03 A3017 RMK A01 T00460031  RH  090%=      5-min Rain = 0
KMC1 011256Z 04013G18KT 05/03 A3017 RMK A01 T00460031  RH  090%=      5-min Rain = 0
KMC1 011257Z 04014G20KT 05/03 A3017 RMK A01 T00460030  RH  089%=      5-min Rain = 0
KMC1 011258Z 04013G20KT 05/03 A3017 RMK A01 T00460029  RH  089%=      5-min Rain = 0
KMC1 011259Z 04011KT 05/03 A3017 RMK A01 T00470029  RH  088%=      5-min Rain = 0
KMC1 011300Z 04012KT 05/03 A3017 RMK A01 T00470029  RH  088%=      5-min Rain = 0
KMC1 011301Z 04009G15KT 05/03 A3017 RMK A01 T00470030  RH  089%=      5-min Rain = 0
KMC1 011302Z 03012KT 05/03 A3018 RMK A01 T00470031  RH  089%=      5-min Rain = 0
KMC1 011303Z 04010KT 05/03 A3018 RMK A01 T00470030  RH  089%=      5-min Rain = 0
KMC1 011304Z 03010KT 05/03 A3018 RMK A01 T00470031  RH  089%=      5-min Rain = 0
KMC1 011305Z 04010KT 05/03 A3018 RMK A01 T00470031  RH  089%=      5-min Rain = 0
KMC1 011306Z 04010KT 05/03 A3018 RMK A01 T00470031  RH  089%=      5-min Rain = 0
KMC1 011307Z 04010KT 05/03 A3018 RMK A01 T00470031  RH  089%=      5-min Rain = 0
KMC1 011308Z 04009KT 05/03 A3018 RMK A01 T00470030  RH  089%=      5-min Rain = 0
KMC1 011309Z 05007KT 05/03 A3018 RMK A01 T00470031  RH  090%=      5-min Rain = 0
KMC1 011310Z 05008KT 05/03 A3018 RMK A01 T00470032  RH  090%=      5-min Rain = 0
KMC1 011311Z 04009KT 05/03 A3019 RMK A01 T00470032  RH  090%=      5-min Rain = 0
KMC1 011312Z 04012KT 05/03 A3019 RMK A01 T00470031  RH  089%=      5-min Rain = 0
KMC1 011313Z 04011KT 05/03 A3019 RMK A01 T00470030  RH  089%=      5-min Rain = 0
KMC1 011314Z 04009KT 05/03 A3019 RMK A01 T00470030  RH  089%=      5-min Rain = 0
KMC1 011315Z 03008KT 05/03 A3019 RMK A01 T00470030  RH  089%=      5-min Rain = 0
KMC1 011316Z 03011KT 05/03 A302 RMK A01 T00470030  RH  089%=      5-min Rain = 0
KMC1 011317Z 03009KT 05/03 A302 RMK A01 T00470029  RH  088%=      5-min Rain = 0
KMC1 011318Z 03011KT 05/03 A302 RMK A01 T00480030  RH  088%=      5-min Rain = 0
KMC1 011319Z 04009KT 05/03 A302 RMK A01 T00480029  RH  088%=      5-min Rain = 0
KMC1 011320Z 04006KT 05/03 A302 RMK A01 T00480030  RH  088%=      5-min Rain = 0
KMC1 011321Z 04011KT 05/03 A302 RMK A01 T00470031  RH  089%=      5-min Rain = 0
KMC1 011322Z 04010KT 05/03 A302 RMK A01 T00480031  RH  089%=      5-min Rain = 0
KMC1 011323Z 05009G14KT 05/03 A302 RMK A01 T00480031  RH  089%=      5-min Rain = 0
KMC1 011324Z 04008KT 05/03 A302 RMK A01 T00480031  RH  089%=      5-min Rain = 0
KMC1 011325Z 05011KT 05/03 A302 RMK A01 T00470031  RH  089%=      5-min Rain = 0
KMC1 011326Z 05010KT 05/03 A302 RMK A01 T00470030  RH  089%=      5-min Rain = 0
KMC1 011327Z 04012KT 05/03 A302 RMK A01 T00470030  RH  088%=      5-min Rain = 0
KMC1 011328Z 05009KT 05/03 A302 RMK A01 T00470030  RH  088%=      5-min Rain = 0
KMC1 011329Z 04011KT 05/03 A302 RMK A01 T00470030  RH  088%=      5-min Rain = 0
KMC1 011330Z 03009G14KT 05/03 A302 RMK A01 T00470030  RH  089%=      5-min Rain = 0
KMC1 011331Z 04008KT 05/03 A302 RMK A01 T00480031  RH  089%=      5-min Rain = 0
KMC1 011332Z 03008KT 05/03 A302 RMK A01 T00470032  RH  090%=      5-min Rain = 0
KMC1 011333Z 03008KT 05/03 A302 RMK A01 T00470032  RH  090%=      5-min Rain = 0
KMC1 011334Z 03010G16KT 05/03 A3021 RMK A01 T00470032  RH  090%=      5-min Rain = 0
KMC1 011335Z 03011KT 05/03 A3021 RMK A01 T00470031  RH  089%=      5-min Rain = 0
KMC1 011336Z 03012KT 05/03 A3021 RMK A01 T00470030  RH  089%=      5-min Rain = 0
KMC1 011337Z 03007KT 05/03 A3021 RMK A01 T00470029  RH  088%=      5-min Rain = 0
KMC1 011338Z 03013G18KT 05/03 A3021 RMK A01 T00480029  RH  088%=      5-min Rain = 0
KMC1 011339Z 04011KT 05/03 A3021 RMK A01 T00480028  RH  087%=      5-min Rain = 0
KMC1 011340Z 03011KT 05/03 A3021 RMK A01 T00480028  RH  087%=      5-min Rain = 0
KMC1 011341Z 04007KT 05/03 A3021 RMK A01 T00480029  RH  088%=      5-min Rain = 0
KMC1 011342Z 03006KT 05/03 A3022 RMK A01 T00480030  RH  089%=      5-min Rain = 0
KMC1 011343Z 03007KT 05/03 A3022 RMK A01 T00480031  RH  089%=      5-min Rain = 0
KMC1 011344Z 03009KT 05/03 A3022 RMK A01 T00480032  RH  090%=      5-min Rain = 0
KMC1 011345Z 03010KT 05/03 A3022 RMK A01 T00480032  RH  089%=      5-min Rain = 0
KMC1 011346Z 03008KT 05/03 A3022 RMK A01 T00480031  RH  089%=      5-min Rain = 0
KMC1 011347Z 03009KT 05/03 A3022 RMK A01 T00480031  RH  089%=      5-min Rain = 0
KMC1 011348Z 03009KT 05/03 A3022 RMK A01 T00480032  RH  089%=      5-min Rain = 0
KMC1 011349Z 04010KT 05/03 A3021 RMK A01 T00480032  RH  089%=      5-min Rain = 0
KMC1 011350Z 04012KT 05/03 A3021 RMK A01 T00480032  RH  089%=      5-min Rain = 0
KMC1 011351Z 04011KT 05/03 A3021 RMK A01 T00480031  RH  089%=      5-min Rain = 0
KMC1 011352Z 03010KT 05/03 A3022 RMK A01 T00470031  RH  089%=      5-min Rain = 0
KMC1 011353Z 03011KT 05/03 A3022 RMK A01 T00470031  RH  089%=      5-min Rain = 0
KMC1 011354Z 04010KT 05/03 A3022 RMK A01 T00470031  RH  089%=      5-min Rain = 0
KMC1 011355Z 04009G14KT 05/03 A3022 RMK A01 T00470031  RH  089%=      5-min Rain = 0
KMC1 011356Z 04009G15KT 05/03 A3022 RMK A01 T00470031  RH  089%=      5-min Rain = 0
KMC1 011357Z 04010G15KT 05/03 A3022 RMK A01 T00470030  RH  089%=      5-min Rain = 0
KMC1 011358Z 04010KT 05/03 A3022 RMK A01 T00470030  RH  089%=      5-min Rain = 0
KMC1 011359Z 03010KT 05/03 A3022 RMK A01 T00470030  RH  089%=      5-min Rain = 0
KMC1 011400Z 02008KT 05/03 A3022 RMK A01 T00470030  RH  089%=      5-min Rain = 0
KMC1 011401Z 03008KT 05/03 A3023 RMK A01 T00480032  RH  089%=      5-min Rain = 0
KMC1 011402Z 04009KT 05/03 A3023 RMK A01 T00480031  RH  089%=      5-min Rain = 0
KMC1 011403Z 03007KT 05/03 A3023 RMK A01 T00480030  RH  088%=      5-min Rain = 0
KMC1 011404Z 03010KT 05/03 A3023 RMK A01 T00480031  RH  089%=      5-min Rain = 0
KMC1 011405Z 03008KT 05/03 A3023 RMK A01 T00480030  RH  088%=      5-min Rain = 0
KMC1 011406Z 03014G19KT 05/03 A3023 RMK A01 T00480030  RH  088%=      5-min Rain = 0
KMC1 011407Z 03015KT 05/03 A3022 RMK A01 T00480028  RH  087%=      5-min Rain = 0
KMC1 011408Z 03014KT 05/03 A3022 RMK A01 T00480028  RH  087%=      5-min Rain = 0
KMC1 011409Z 03012KT 05/03 A3022 RMK A01 T00480028  RH  087%=      5-min Rain = 0
KMC1 011410Z 03013KT 05/03 A3022 RMK A01 T00480029  RH  087%=      5-min Rain = 0
KMC1 011411Z 04010G15KT 05/03 A3022 RMK A01 T00480029  RH  088%=      5-min Rain = 0
KMC1 011412Z 04015KT 05/03 A3022 RMK A01 T00480029  RH  088%=      5-min Rain = 0
KMC1 011413Z 03015G20KT 05/03 A3022 RMK A01 T00480028  RH  087%=      5-min Rain = 0
KMC1 011414Z 04015KT 05/03 A3022 RMK A01 T00480027  RH  087%=      5-min Rain = 0
KMC1 011415Z 04015G20KT 05/03 A3022 RMK A01 T00480027  RH  086%=      5-min Rain = 0
KMC1 011416Z 03012KT 05/03 A3022 RMK A01 T00480027  RH  086%=      5-min Rain = 0
KMC1 011417Z 03012KT 05/03 A3022 RMK A01 T00480028  RH  087%=      5-min Rain = 0
KMC1 011418Z 02009KT 05/03 A3022 RMK A01 T00480029  RH  087%=      5-min Rain = 0
KMC1 011419Z 03008KT 05/03 A3023 RMK A01 T00480029  RH  087%=      5-min Rain = 0
KMC1 011420Z 02008KT 05/03 A3023 RMK A01 T00490030  RH  088%=      5-min Rain = 0
KMC1 011421Z 02006KT 05/03 A3023 RMK A01 T00490030  RH  088%=      5-min Rain = 0
KMC1 011422Z 02007KT 05/03 A3023 RMK A01 T00490030  RH  088%=      5-min Rain = 0
KMC1 011423Z 01009KT 05/03 A3023 RMK A01 T00490029  RH  086%=      5-min Rain = 0
KMC1 011424Z 01010KT 05/03 A3023 RMK A01 T00490027  RH  086%=      5-min Rain = 0
KMC1 011425Z 02014G19KT 05/03 A3023 RMK A01 T00500026  RH  085%=      5-min Rain = 0
KMC1 011426Z 03010KT 05/03 A3023 RMK A01 T00500025  RH  084%=      5-min Rain = 0
KMC1 011427Z 02013KT 05/03 A3023 RMK A01 T00500026  RH  084%=      5-min Rain = 0
KMC1 011428Z 02013KT 05/03 A3023 RMK A01 T00500026  RH  085%=      5-min Rain = 0
KMC1 011429Z 03010KT 05/03 A3023 RMK A01 T00490025  RH  084%=      5-min Rain = 0
KMC1 011430Z 03013KT 05/03 A3024 RMK A01 T00490025  RH  084%=      5-min Rain = 0
KMC1 011431Z 02011KT 05/03 A3024 RMK A01 T00500025  RH  084%=      5-min Rain = 0
KMC1 011432Z 03011KT 05/03 A3024 RMK A01 T00500025  RH  084%=      5-min Rain = 0
KMC1 011433Z 03010KT 05/03 A3024 RMK A01 T00500026  RH  084%=      5-min Rain = 0
KMC1 011434Z 02008KT 05/03 A3024 RMK A01 T00500027  RH  085%=      5-min Rain = 0
KMC1 011435Z 02013KT 05/03 A3024 RMK A01 T00500027  RH  085%=      5-min Rain = 0
KMC1 011436Z 03013KT 05/03 A3024 RMK A01 T00500025  RH  084%=      5-min Rain = 0
KMC1 011437Z 03015KT 05/03 A3024 RMK A01 T00500025  RH  083%=      5-min Rain = 0
KMC1 011438Z 03014KT 05/02 A3024 RMK A01 T00500023  RH  083%=      5-min Rain = 0
KMC1 011439Z 04011KT 05/02 A3024 RMK A01 T00500024  RH  083%=      5-min Rain = 0
KMC1 011440Z 04011KT 05/03 A3024 RMK A01 T00500025  RH  084%=      5-min Rain = 0
KMC1 011441Z 04012KT 05/03 A3024 RMK A01 T00500025  RH  084%=      5-min Rain = 0
KMC1 011442Z 04011KT 05/03 A3024 RMK A01 T00500025  RH  084%=      5-min Rain = 0
KMC1 011443Z 04012KT 05/03 A3024 RMK A01 T00500026  RH  084%=      5-min Rain = 0
KMC1 011444Z 04010KT 05/03 A3024 RMK A01 T00500026  RH  084%=      5-min Rain = 0
KMC1 011445Z 04012G17KT 05/03 A3024 RMK A01 T00500026  RH  084%=      5-min Rain = 0
KMC1 011446Z 04011KT 05/03 A3024 RMK A01 T00500026  RH  084%=      5-min Rain = 0
KMC1 011447Z 03011KT 05/03 A3024 RMK A01 T00500025  RH  084%=      5-min Rain = 0
KMC1 011448Z 04011KT 05/03 A3024 RMK A01 T00500026  RH  084%=      5-min Rain = 0
KMC1 011449Z 04012KT 05/03 A3024 RMK A01 T00500026  RH  084%=      5-min Rain = 0
KMC1 011450Z 03010KT 05/03 A3024 RMK A01 T00510026  RH  084%=      5-min Rain = 0
KMC1 011451Z 03010KT 05/03 A3024 RMK A01 T00500026  RH  085%=      5-min Rain = 0
KMC1 011452Z 03012KT 05/03 A3025 RMK A01 T00510026  RH  084%=      5-min Rain = 0
KMC1 011453Z 04012KT 05/03 A3025 RMK A01 T00510026  RH  084%=      5-min Rain = 0
KMC1 011454Z 03010KT 05/03 A3025 RMK A01 T00510026  RH  084%=      5-min Rain = 0
KMC1 011455Z 04010KT 05/03 A3024 RMK A01 T00510027  RH  084%=      5-min Rain = 0
KMC1 011456Z 04010G15KT 05/03 A3024 RMK A01 T00510027  RH  084%=      5-min Rain = 0
KMC1 011457Z 04012KT 05/03 A3024 RMK A01 T00510027  RH  084%=      5-min Rain = 0
KMC1 011458Z 04009KT 05/03 A3024 RMK A01 T00520027  RH  084%=      5-min Rain = 0
KMC1 011459Z 04009KT 05/03 A3024 RMK A01 T00520029  RH  085%=      5-min Rain = 0
KMC1 011500Z 04008KT 05/03 A3024 RMK A01 T00530030  RH  085%=      5-min Rain = 0
KMC1 011501Z 04009KT 05/03 A3024 RMK A01 T00530030  RH  085%=      5-min Rain = 0
KMC1 011502Z 04007KT 05/03 A3024 RMK A01 T00530030  RH  085%=      5-min Rain = 0
KMC1 011503Z 05006KT 05/03 A3024 RMK A01 T00540030  RH  085%=      5-min Rain = 0
KMC1 011504Z 04006KT 05/03 A3024 RMK A01 T00540031  RH  085%=      5-min Rain = 0
KMC1 011505Z 05007KT 05/03 A3024 RMK A01 T00540033  RH  086%=      5-min Rain = 0
KMC1 011506Z 05006KT 06/03 A3024 RMK A01 T00550032  RH  085%=      5-min Rain = 0
KMC1 011507Z 05005KT 06/03 A3024 RMK A01 T00550033  RH  086%=      5-min Rain = 0
KMC1 011508Z 05005KT 06/03 A3024 RMK A01 T00550032  RH  085%=      5-min Rain = 0
KMC1 011509Z 05007KT 06/03 A3024 RMK A01 T00550032  RH  085%=      5-min Rain = 0
KMC1 011510Z 05006KT 06/03 A3024 RMK A01 T00550032  RH  085%=      5-min Rain = 0
KMC1 011511Z 05005KT 06/03 A3024 RMK A01 T00550032  RH  085%=      5-min Rain = 0
KMC1 011512Z 04007KT 06/03 A3024 RMK A01 T00550033  RH  085%=      5-min Rain = 0
KMC1 011513Z 04008KT 06/03 A3024 RMK A01 T00560032  RH  085%=      5-min Rain = 0
KMC1 011514Z 04008KT 06/03 A3024 RMK A01 T00550032  RH  085%=      5-min Rain = 0
KMC1 011515Z 05007KT 06/03 A3024 RMK A01 T00550031  RH  085%=      5-min Rain = 0
KMC1 011516Z 03007G12KT 06/03 A3024 RMK A01 T00560033  RH  085%=      5-min Rain = 0
KMC1 011517Z 03009KT 06/03 A3024 RMK A01 T00560032  RH  085%=      5-min Rain = 0
KMC1 011518Z 04007KT 06/03 A3024 RMK A01 T00560032  RH  085%=      5-min Rain = 0
KMC1 011519Z 03010KT 06/03 A3024 RMK A01 T00560033  RH  085%=      5-min Rain = 0
KMC1 011520Z 04007KT 06/03 A3024 RMK A01 T00560032  RH  084%=      5-min Rain = 0
KMC1 011521Z 05006KT 06/03 A3024 RMK A01 T00570033  RH  085%=      5-min Rain = 0
KMC1 011522Z 05007KT 06/04 A3024 RMK A01 T00580035  RH  085%=      5-min Rain = 0
KMC1 011523Z 05004KT 06/04 A3024 RMK A01 T00590036  RH  085%=      5-min Rain = 0
KMC1 011524Z 04008KT 06/04 A3024 RMK A01 T00610039  RH  086%=      5-min Rain = 0
KMC1 011525Z 04008KT 06/04 A3024 RMK A01 T00610037  RH  084%=      5-min Rain = 0
KMC1 011526Z 05007KT 06/04 A3024 RMK A01 T00610036  RH  084%=      5-min Rain = 0
KMC1 011527Z 03010KT 06/04 A3024 RMK A01 T00620037  RH  084%=      5-min Rain = 0
KMC1 011528Z 04010KT 06/04 A3025 RMK A01 T00620035  RH  083%=      5-min Rain = 0
KMC1 011529Z 04009KT 06/03 A3025 RMK A01 T00620033  RH  081%=      5-min Rain = 0
KMC1 011530Z 03006KT 06/04 A3025 RMK A01 T00620035  RH  082%=      5-min Rain = 0
KMC1 011531Z 03005KT 06/04 A3025 RMK A01 T00640038  RH  084%=      5-min Rain = 0
KMC1 011532Z 03008KT 07/04 A3025 RMK A01 T00650039  RH  083%=      5-min Rain = 0
KMC1 011533Z 03008KT 07/04 A3025 RMK A01 T00650037  RH  082%=      5-min Rain = 0
KMC1 011534Z 04008KT 07/04 A3025 RMK A01 T00650036  RH  082%=      5-min Rain = 0
KMC1 011535Z 03010KT 07/04 A3025 RMK A01 T00650036  RH  082%=      5-min Rain = 0
KMC1 011536Z 03011KT 07/04 A3025 RMK A01 T00650036  RH  081%=      5-min Rain = 0
KMC1 011537Z 03008KT 07/03 A3025 RMK A01 T00650034  RH  081%=      5-min Rain = 0
KMC1 011538Z 04011KT 07/04 A3025 RMK A01 T00650035  RH  081%=      5-min Rain = 0
KMC1 011539Z 04010KT 07/03 A3025 RMK A01 T00650034  RH  080%=      5-min Rain = 0
KMC1 011540Z 04009KT 06/03 A3025 RMK A01 T00640033  RH  080%=      5-min Rain = 0
KMC1 011541Z 03011G16KT 07/03 A3025 RMK A01 T00650033  RH  080%=      5-min Rain = 0
KMC1 011542Z 04012G19KT 07/03 A3025 RMK A01 T00650033  RH  080%=      5-min Rain = 0
KMC1 011543Z 03015KT 07/03 A3025 RMK A01 T00650030  RH  078%=      5-min Rain = 0
KMC1 011544Z 03012G17KT 06/03 A3025 RMK A01 T00640029  RH  079%=      5-min Rain = 0
KMC1 011545Z 04017KT 06/03 A3025 RMK A01 T00640030  RH  079%=      5-min Rain = 0
KMC1 011546Z 03014KT 06/03 A3025 RMK A01 T00640028  RH  078%=      5-min Rain = 0
KMC1 011547Z 04014KT 06/03 A3025 RMK A01 T00640029  RH  078%=      5-min Rain = 0
KMC1 011548Z 03010G15KT 07/03 A3025 RMK A01 T00650030  RH  078%=      5-min Rain = 0
KMC1 011549Z 03015KT 07/03 A3025 RMK A01 T00660032  RH  079%=      5-min Rain = 0
KMC1 011550Z 03013KT 07/03 A3025 RMK A01 T00660030  RH  078%=      5-min Rain = 0
KMC1 011551Z 03013G18KT 07/03 A3025 RMK A01 T00660030  RH  078%=      5-min Rain = 0
KMC1 011552Z 03011KT 07/03 A3025 RMK A01 T00670033  RH  079%=      5-min Rain = 0
KMC1 011553Z 04011KT 07/03 A3025 RMK A01 T00680033  RH  079%=      5-min Rain = 0
KMC1 011554Z 04012KT 07/03 A3025 RMK A01 T00680033  RH  078%=      5-min Rain = 0
KMC1 011555Z 04017KT 07/03 A3025 RMK A01 T00680031  RH  077%=      5-min Rain = 0
KMC1 011556Z 04012KT 07/03 A3025 RMK A01 T00660027  RH  076%=      5-min Rain = 0
KMC1 011557Z 04013KT 07/03 A3026 RMK A01 T00660028  RH  077%=      5-min Rain = 0
KMC1 011558Z 04012KT 07/03 A3026 RMK A01 T00660028  RH  077%=      5-min Rain = 0
KMC1 011559Z 04012G17KT 07/03 A3026 RMK A01 T00660029  RH  077%=      5-min Rain = 0
KMC1 011600Z 04010G15KT 07/03 A3026 RMK A01 T00660028  RH  076%=      5-min Rain = 0
KMC1 011601Z 03011KT 07/03 A3026 RMK A01 T00660028  RH  077%=      5-min Rain = 0
KMC1 011602Z 03013KT 07/03 A3026 RMK A01 T00670030  RH  078%=      5-min Rain = 0
KMC1 011603Z 03012KT 07/03 A3026 RMK A01 T00670029  RH  077%=      5-min Rain = 0
KMC1 011604Z 03011KT 07/03 A3026 RMK A01 T00670030  RH  077%=      5-min Rain = 0
KMC1 011605Z 04010KT 07/03 A3026 RMK A01 T00680033  RH  078%=      5-min Rain = 0
KMC1 011606Z 04010KT 07/03 A3026 RMK A01 T00690031  RH  077%=      5-min Rain = 0
KMC1 011607Z 04009KT 07/03 A3026 RMK A01 T00690033  RH  077%=      5-min Rain = 0
KMC1 011608Z 04009KT 07/03 A3026 RMK A01 T00700033  RH  077%=      5-min Rain = 0
KMC1 011609Z 04008KT 07/03 A3026 RMK A01 T00700031  RH  077%=      5-min Rain = 0
KMC1 011610Z 05008G13KT 07/03 A3026 RMK A01 T00700033  RH  077%=      5-min Rain = 0
KMC1 011611Z 03014KT 07/03 A3026 RMK A01 T00710032  RH  077%=      5-min Rain = 0
KMC1 011612Z 02010KT 07/03 A3026 RMK A01 T00700031  RH  076%=      5-min Rain = 0
KMC1 011613Z 03012KT 07/03 A3026 RMK A01 T00700031  RH  076%=      5-min Rain = 0
KMC1 011614Z 03015G20KT 07/03 A3026 RMK A01 T00700030  RH  075%=      5-min Rain = 0
KMC1 011615Z 04014KT 07/03 A3026 RMK A01 T00700029  RH  075%=      5-min Rain = 0
KMC1 011616Z 03013KT 07/03 A3027 RMK A01 T00690029  RH  075%=      5-min Rain = 0
KMC1 011617Z 03012G18KT 07/03 A3027 RMK A01 T00690029  RH  075%=      5-min Rain = 0
KMC1 011618Z 03013KT 07/03 A3027 RMK A01 T00690029  RH  075%=      5-min Rain = 0
KMC1 011619Z 03010G15KT 07/03 A3027 RMK A01 T00690029  RH  076%=      5-min Rain = 0
KMC1 011620Z 04012KT 07/03 A3027 RMK A01 T00700031  RH  076%=      5-min Rain = 0
KMC1 011621Z 04010KT 07/03 A3027 RMK A01 T00700031  RH  076%=      5-min Rain = 0
KMC1 011622Z 04011KT 07/03 A3027 RMK A01 T00710031  RH  076%=      5-min Rain = 0
KMC1 011623Z 05008KT 07/03 A3027 RMK A01 T00710030  RH  075%=      5-min Rain = 0
KMC1 011624Z 04011KT 07/03 A3027 RMK A01 T00710031  RH  076%=      5-min Rain = 0
KMC1 011625Z 04009KT 07/03 A3027 RMK A01 T00710030  RH  075%=      5-min Rain = 0
KMC1 011626Z 04011KT 07/03 A3027 RMK A01 T00700031  RH  076%=      5-min Rain = 0
KMC1 011627Z 04009G14KT 07/03 A3027 RMK A01 T00710030  RH  076%=      5-min Rain = 0
KMC1 011628Z 04011KT 07/03 A3027 RMK A01 T00710033  RH  077%=      5-min Rain = 0
KMC1 011629Z 04013G19KT 07/03 A3027 RMK A01 T00710030  RH  075%=      5-min Rain = 0
KMC1 011630Z 04012KT 07/03 A3027 RMK A01 T00700028  RH  075%=      5-min Rain = 0
KMC1 011631Z 04009KT 07/03 A3027 RMK A01 T00700030  RH  076%=      5-min Rain = 0
KMC1 011632Z 03011KT 07/03 A3027 RMK A01 T00700031  RH  076%=      5-min Rain = 0
KMC1 011633Z 04009KT 07/03 A3027 RMK A01 T00700029  RH  075%=      5-min Rain = 0
KMC1 011634Z 05011KT 07/03 A3027 RMK A01 T00700030  RH  076%=      5-min Rain = 0
KMC1 011635Z 04011KT 07/03 A3027 RMK A01 T00690029  RH  075%=      5-min Rain = 0
KMC1 011636Z 05009G14KT 07/03 A3027 RMK A01 T00690030  RH  076%=      5-min Rain = 0
KMC1 011637Z 04010KT 07/03 A3027 RMK A01 T00690031  RH  077%=      5-min Rain = 0
KMC1 011638Z 04011KT 07/03 A3027 RMK A01 T00700031  RH  076%=      5-min Rain = 0
KMC1 011639Z 04012G17KT 07/03 A3027 RMK A01 T00700030  RH  076%=      5-min Rain = 0
KMC1 011640Z 05014KT 07/03 A3027 RMK A01 T00700028  RH  075%=      5-min Rain = 0
KMC1 011641Z 04011G17KT 07/03 A3027 RMK A01 T00700028  RH  075%=      5-min Rain = 0
KMC1 011642Z 03012G18KT 07/03 A3027 RMK A01 T00690028  RH  075%=      5-min Rain = 0
KMC1 011643Z 04014KT 07/03 A3027 RMK A01 T00690027  RH  074%=      5-min Rain = 0
KMC1 011644Z 04012KT 07/03 A3027 RMK A01 T00690027  RH  074%=      5-min Rain = 0
KMC1 011645Z 04013G18KT 07/03 A3027 RMK A01 T00690027  RH  075%=      5-min Rain = 0
KMC1 011646Z 03013KT 07/03 A3027 RMK A01 T00690027  RH  075%=      5-min Rain = 0
KMC1 011647Z 03013KT 07/03 A3027 RMK A01 T00690027  RH  075%=      5-min Rain = 0
KMC1 011648Z 03012G17KT 07/03 A3027 RMK A01 T00690028  RH  075%=      5-min Rain = 0
KMC1 011649Z 03013G18KT 07/03 A3027 RMK A01 T00700027  RH  074%=      5-min Rain = 0
KMC1 011650Z 03013KT 07/03 A3027 RMK A01 T00700028  RH  075%=      5-min Rain = 0
KMC1 011651Z 03014KT 07/03 A3028 RMK A01 T00700028  RH  075%=      5-min Rain = 0
KMC1 011652Z 03013KT 07/03 A3028 RMK A01 T00700028  RH  074%=      5-min Rain = 0
KMC1 011653Z 03011KT 07/03 A3028 RMK A01 T00710028  RH  074%=      5-min Rain = 0
KMC1 011654Z 04013G19KT 07/03 A3028 RMK A01 T00710028  RH  074%=      5-min Rain = 0
KMC1 011655Z 04014KT 07/03 A3028 RMK A01 T00710027  RH  074%=      5-min Rain = 0
KMC1 011656Z 04015KT 07/03 A3028 RMK A01 T00710027  RH  074%=      5-min Rain = 0
KMC1 011657Z 04012KT 07/03 A3028 RMK A01 T00710027  RH  074%=      5-min Rain = 0
KMC1 011658Z 04012KT 07/03 A3028 RMK A01 T00710029  RH  074%=      5-min Rain = 0
KMC1 011659Z 04010KT 07/03 A3028 RMK A01 T00720029  RH  074%=      5-min Rain = 0
KMC1 011700Z 04012G18KT 07/03 A3028 RMK A01 T00730030  RH  075%=      5-min Rain = 0
KMC1 011701Z 05012KT 07/03 A3028 RMK A01 T00730031  RH  075%=      5-min Rain = 0
KMC1 011702Z 04012KT 07/03 A3028 RMK A01 T00740030  RH  073%=      5-min Rain = 0
KMC1 011703Z 04011KT 07/03 A3028 RMK A01 T00740029  RH  073%=      5-min Rain = 0
KMC1 011704Z 04012KT 08/03 A3028 RMK A01 T00750031  RH  073%=      5-min Rain = 0
KMC1 011705Z 04013G18KT 08/03 A3028 RMK A01 T00760030  RH  073%=      5-min Rain = 0
KMC1 011706Z 04010KT 08/03 A3028 RMK A01 T00760029  RH  072%=      5-min Rain = 0
KMC1 011707Z 05009G14KT 08/03 A3029 RMK A01 T00750030  RH  073%=      5-min Rain = 0
KMC1 011708Z 04009KT 08/03 A3029 RMK A01 T00760030  RH  073%=      5-min Rain = 0
KMC1 011709Z 04008KT 08/03 A3029 RMK A01 T00760032  RH  073%=      5-min Rain = 0
KMC1 011710Z 03008KT 08/03 A3029 RMK A01 T00770032  RH  073%=      5-min Rain = 0
KMC1 011711Z 03010KT 08/03 A3029 RMK A01 T00770032  RH  073%=      5-min Rain = 0
KMC1 011712Z 03012G17KT 08/03 A3029 RMK A01 T00770029  RH  072%=      5-min Rain = 0
KMC1 011713Z 03009KT 08/03 A3029 RMK A01 T00760031  RH  073%=      5-min Rain = 0
KMC1 011714Z 03011G20KT 08/03 A3029 RMK A01 T00770034  RH  074%=      5-min Rain = 0
KMC1 011715Z 04012G17KT 08/03 A3029 RMK A01 T00780030  RH  072%=      5-min Rain = 0
KMC1 011716Z 03013G18KT 08/03 A3029 RMK A01 T00780030  RH  072%=      5-min Rain = 0
KMC1 011717Z 03016KT 08/03 A3029 RMK A01 T00770028  RH  071%=      5-min Rain = 0
KMC1 011718Z 03013KT 08/03 A3029 RMK A01 T00760027  RH  071%=      5-min Rain = 0
KMC1 011719Z 03011KT 08/03 A3029 RMK A01 T00760029  RH  072%=      5-min Rain = 0
KMC1 011720Z 03010KT 08/03 A3029 RMK A01 T00760029  RH  072%=      5-min Rain = 0
KMC1 011721Z 03011KT 08/03 A3029 RMK A01 T00770031  RH  072%=      5-min Rain = 0
KMC1 011722Z 04012G17KT 08/03 A3029 RMK A01 T00780031  RH  072%=      5-min Rain = 0
KMC1 011723Z 03013KT 08/03 A3029 RMK A01 T00790030  RH  071%=      5-min Rain = 0
KMC1 011724Z 02013G19KT 08/03 A3029 RMK A01 T00780028  RH  071%=      5-min Rain = 0
KMC1 011725Z 03013KT 08/03 A3029 RMK A01 T00780028  RH  070%=      5-min Rain = 0
KMC1 011726Z 04009KT 08/03 A3029 RMK A01 T00780029  RH  071%=      5-min Rain = 0
KMC1 011727Z 06010KT 08/03 A3029 RMK A01 T00800032  RH  072%=      5-min Rain = 0
KMC1 011728Z 04010G15KT 08/03 A3029 RMK A01 T00800031  RH  071%=      5-min Rain = 0
KMC1 011729Z 04012KT 08/03 A3029 RMK A01 T00810030  RH  070%=      5-min Rain = 0
KMC1 011730Z 04012KT 08/03 A3029 RMK A01 T00810030  RH  070%=      5-min Rain = 0
KMC1 011731Z 03011KT 08/03 A3029 RMK A01 T00800030  RH  071%=      5-min Rain = 0
KMC1 011732Z 03008KT 08/03 A3029 RMK A01 T00810033  RH  072%=      5-min Rain = 0
KMC1 011733Z 04009KT 08/04 A3029 RMK A01 T00840037  RH  072%=      5-min Rain = 0
KMC1 011734Z 05010KT 09/04 A3029 RMK A01 T00860035  RH  071%=      5-min Rain = 0
KMC1 011735Z 03012KT 09/03 A3029 RMK A01 T00860034  RH  070%=      5-min Rain = 0
KMC1 011736Z 04011KT 09/03 A3029 RMK A01 T00860034  RH  069%=      5-min Rain = 0
KMC1 011737Z 04014KT 09/03 A3029 RMK A01 T00860031  RH  068%=      5-min Rain = 0
KMC1 011738Z 04014KT 09/03 A3029 RMK A01 T00850028  RH  068%=      5-min Rain = 0
KMC1 011739Z 04011G17KT 08/03 A3029 RMK A01 T00840029  RH  068%=      5-min Rain = 0
KMC1 011740Z 05011G20KT 09/03 A3029 RMK A01 T00850032  RH  069%=      5-min Rain = 0
KMC1 011741Z 04014G19KT 09/03 A3029 RMK A01 T00860031  RH  069%=      5-min Rain = 0
KMC1 011742Z 04012G17KT 09/03 A3029 RMK A01 T00860030  RH  068%=      5-min Rain = 0
KMC1 011743Z 05010KT 09/03 A3029 RMK A01 T00860030  RH  068%=      5-min Rain = 0
KMC1 011744Z 04013G18KT 09/03 A3029 RMK A01 T00860030  RH  068%=      5-min Rain = 0
KMC1 011745Z 04011G17KT 09/03 A3029 RMK A01 T00870030  RH  068%=      5-min Rain = 0
KMC1 011746Z 04013KT 09/04 A3029 RMK A01 T00890035  RH  069%=      5-min Rain = 0
KMC1 011747Z 05010G16KT 09/04 A3029 RMK A01 T00930037  RH  068%=      5-min Rain = 0
KMC1 011748Z 04013G19KT 10/04 A3029 RMK A01 T00960038  RH  067%=      5-min Rain = 0
KMC1 011749Z 03014KT 10/04 A3029 RMK A01 T00960035  RH  065%=      5-min Rain = 0
KMC1 011750Z 04013KT 10/03 A3029 RMK A01 T00950034  RH  065%=      5-min Rain = 0
KMC1 011751Z 04014G19KT 10/03 A3029 RMK A01 T00950034  RH  066%=      5-min Rain = 0
KMC1 011752Z 04014KT 10/03 A3029 RMK A01 T00950032  RH  065%=      5-min Rain = 0
KMC1 011753Z 05013KT 09/03 A3029 RMK A01 T00930030  RH  064%=      5-min Rain = 0
KMC1 011754Z 05011G16KT 09/03 A3029 RMK A01 T00920032  RH  066%=      5-min Rain = 0
KMC1 011755Z 05012G17KT 09/03 A3029 RMK A01 T00930032  RH  066%=      5-min Rain = 0
KMC1 011756Z 05014KT 09/03 A3029 RMK A01 T00940034  RH  066%=      5-min Rain = 0
KMC1 011757Z 05013KT 10/03 A3029 RMK A01 T00950033  RH  065%=      5-min Rain = 0
KMC1 011758Z 04013KT 10/03 A3029 RMK A01 T00960033  RH  065%=      5-min Rain = 0
KMC1 011759Z 06011G17KT 10/04 A3029 RMK A01 T00970036  RH  066%=      5-min Rain = 0
KMC1 011800Z 05013KT 10/03 A3029 RMK A01 T00980034  RH  064%=      5-min Rain = 0
KMC1 011801Z 04011KT 10/03 A3029 RMK A01 T00980034  RH  064%=      5-min Rain = 0
KMC1 011802Z 03013G19KT 10/04 A3029 RMK A01 T00990037  RH  065%=      5-min Rain = 0
KMC1 011803Z 03017G23KT 10/04 A3029 RMK A01 T01000035  RH  064%=      5-min Rain = 0
KMC1 011804Z 04015KT 10/03 A3029 RMK A01 T00970032  RH  064%=      5-min Rain = 0
KMC1 011805Z 04014KT 10/03 A3028 RMK A01 T00960033  RH  065%=      5-min Rain = 0
KMC1 011806Z 04014KT 10/03 A3028 RMK A01 T00950033  RH  065%=      5-min Rain = 0
KMC1 011807Z 04013G18KT 10/03 A3028 RMK A01 T00950033  RH  065%=      5-min Rain = 0
KMC1 011808Z 04013G18KT 10/03 A3028 RMK A01 T00960034  RH  065%=      5-min Rain = 0
KMC1 011809Z 05011KT 10/04 A3029 RMK A01 T00970036  RH  066%=      5-min Rain = 0
KMC1 011810Z 05010G16KT 10/03 A3029 RMK A01 T00980033  RH  064%=      5-min Rain = 0
KMC1 011811Z 05012KT 10/03 A3029 RMK A01 T00970032  RH  064%=      5-min Rain = 0
KMC1 011812Z 03010KT 10/04 A3029 RMK A01 T00970035  RH  065%=      5-min Rain = 0
KMC1 011813Z 04009KT 10/04 A3029 RMK A01 T00990041  RH  067%=      5-min Rain = 0
KMC1 011814Z 03007KT 10/04 A3029 RMK A01 T01020039  RH  065%=      5-min Rain = 0
KMC1 011815Z 04007KT 11/05 A3029 RMK A01 T01050046  RH  067%=      5-min Rain = 0
KMC1 011816Z 05008KT 11/05 A3029 RMK A01 T01120048  RH  065%=      5-min Rain = 0
KMC1 011817Z 03011KT 11/04 A3029 RMK A01 T01140043  RH  062%=      5-min Rain = 0
KMC1 011818Z 04011G16KT 11/04 A3029 RMK A01 T01130044  RH  063%=      5-min Rain = 0
KMC1 011819Z 05010G16KT 11/03 A3029 RMK A01 T01080034  RH  060%=      5-min Rain = 0
KMC1 011820Z 04011G16KT 11/04 A3029 RMK A01 T01050036  RH  062%=      5-min Rain = 0
KMC1 011821Z 03013KT 10/04 A3029 RMK A01 T01040036  RH  062%=      5-min Rain = 0
KMC1 011822Z 03011KT 10/03 A3029 RMK A01 T01010033  RH  063%=      5-min Rain = 0
KMC1 011823Z 03009KT 10/04 A3029 RMK A01 T01000035  RH  064%=      5-min Rain = 0
KMC1 011824Z 05011G16KT 10/03 A3029 RMK A01 T00990034  RH  064%=      5-min Rain = 0
KMC1 011825Z 04012G17KT 10/04 A3029 RMK A01 T00990035  RH  064%=      5-min Rain = 0
KMC1 011826Z 05011KT 10/03 A3029 RMK A01 T00980031  RH  063%=      5-min Rain = 0
KMC1 011827Z 04012G17KT 10/03 A3029 RMK A01 T00960033  RH  065%=      5-min Rain = 0
KMC1 011828Z 05010G15KT 10/03 A3029 RMK A01 T00960033  RH  065%=      5-min Rain = 0
KMC1 011829Z 05012KT 10/03 A3029 RMK A01 T00970032  RH  064%=      5-min Rain = 0
KMC1 011830Z 05013KT 10/03 A3029 RMK A01 T00970032  RH  064%=      5-min Rain = 0
KMC1 011831Z 04012KT 10/03 A3029 RMK A01 T00970033  RH  064%=      5-min Rain = 0
KMC1 011832Z 05011KT 10/03 A3029 RMK A01 T00970032  RH  064%=      5-min Rain = 0
KMC1 011833Z 05008G14KT 10/04 A3029 RMK A01 T00990035  RH  065%=      5-min Rain = 0
KMC1 011834Z 02010G15KT 10/04 A3029 RMK A01 T01000035  RH  064%=      5-min Rain = 0
KMC1 011835Z 01013KT 10/03 A3029 RMK A01 T01010031  RH  062%=      5-min Rain = 0
KMC1 011836Z 01011KT 10/03 A3029 RMK A01 T00980029  RH  062%=      5-min Rain = 0
KMC1 011837Z 03012KT 10/03 A3029 RMK A01 T00980032  RH  064%=      5-min Rain = 0
KMC1 011838Z 03012KT 10/03 A3029 RMK A01 T00980032  RH  063%=      5-min Rain = 0
KMC1 011839Z 02012KT 10/03 A3029 RMK A01 T00980030  RH  063%=      5-min Rain = 0
KMC1 011840Z 01012KT 10/03 A3029 RMK A01 T00970031  RH  063%=      5-min Rain = 0
KMC1 011841Z 02010KT 10/03 A3029 RMK A01 T00970032  RH  064%=      5-min Rain = 0
KMC1 011842Z 03010KT 10/04 A3029 RMK A01 T01000038  RH  065%=      5-min Rain = 0
KMC1 011843Z 03014G19KT 10/04 A3029 RMK A01 T01030037  RH  063%=      5-min Rain = 0
KMC1 011844Z 03013KT 10/03 A3029 RMK A01 T01040034  RH  062%=      5-min Rain = 0
KMC1 011845Z 03013KT 10/04 A3029 RMK A01 T01030035  RH  063%=      5-min Rain = 0
KMC1 011846Z 03013KT 10/04 A3029 RMK A01 T01030036  RH  063%=      5-min Rain = 0
KMC1 011847Z 03012KT 11/04 A3029 RMK A01 T01060040  RH  064%=      5-min Rain = 0
KMC1 011848Z 03009KT 11/04 A3029 RMK A01 T01100043  RH  063%=      5-min Rain = 0
KMC1 011849Z 04011KT 11/04 A3029 RMK A01 T01120039  RH  061%=      5-min Rain = 0
KMC1 011850Z 05009KT 11/04 A3029 RMK A01 T01090035  RH  060%=      5-min Rain = 0
KMC1 011851Z 05008G13KT 11/04 A3028 RMK A01 T01080040  RH  063%=      5-min Rain = 0
KMC1 011852Z 05009KT 11/04 A3028 RMK A01 T01100038  RH  061%=      5-min Rain = 0
KMC1 011853Z 04008KT 11/04 A3028 RMK A01 T01110037  RH  061%=      5-min Rain = 0
KMC1 011854Z 04011KT 11/04 A3028 RMK A01 T01110036  RH  060%=      5-min Rain = 0
KMC1 011855Z 03013KT 11/04 A3028 RMK A01 T01090038  RH  061%=      5-min Rain = 0
KMC1 011856Z 04012KT 11/04 A3028 RMK A01 T01110041  RH  062%=      5-min Rain = 0
KMC1 011857Z 05010KT 11/04 A3028 RMK A01 T01140041  RH  061%=      5-min Rain = 0
KMC1 011858Z 04013KT 12/04 A3028 RMK A01 T01150039  RH  060%=      5-min Rain = 0
KMC1 011859Z 05010KT 11/04 A3028 RMK A01 T01130036  RH  059%=      5-min Rain = 0
KMC1 011900Z 05013KT 11/04 A3028 RMK A01 T01120038  RH  060%=      5-min Rain = 0
KMC1 011901Z 04008G13KT 11/04 A3028 RMK A01 T01130037  RH  060%=      5-min Rain = 0
KMC1 011902Z 05006KT 11/04 A3028 RMK A01 T01130040  RH  061%=      5-min Rain = 0
KMC1 011903Z 03008KT 12/04 A3028 RMK A01 T01160041  RH  060%=      5-min Rain = 0
KMC1 011904Z 03010KT 12/04 A3028 RMK A01 T01150035  RH  058%=      5-min Rain = 0
KMC1 011905Z 04012KT 11/03 A3028 RMK A01 T01110034  RH  059%=      5-min Rain = 0
KMC1 011906Z 04009KT 11/03 A3028 RMK A01 T01090033  RH  059%=      5-min Rain = 0
KMC1 011907Z 02009KT 11/04 A3028 RMK A01 T01080038  RH  062%=      5-min Rain = 0
KMC1 011908Z 02010KT 11/04 A3028 RMK A01 T01120041  RH  062%=      5-min Rain = 0
KMC1 011909Z 01007KT 11/04 A3028 RMK A01 T01110035  RH  060%=      5-min Rain = 0
KMC1 011910Z 01008KT 11/04 A3028 RMK A01 T01100037  RH  061%=      5-min Rain = 0
KMC1 011911Z 02011KT 11/03 A3028 RMK A01 T01090034  RH  060%=      5-min Rain = 0
KMC1 011912Z 01010KT 11/04 A3028 RMK A01 T01080035  RH  061%=      5-min Rain = 0
KMC1 011913Z 01011KT 11/03 A3028 RMK A01 T01080034  RH  060%=      5-min Rain = 0
KMC1 011914Z 03011KT 11/03 A3028 RMK A01 T01060033  RH  061%=      5-min Rain = 0
KMC1 011915Z 03009KT 11/03 A3028 RMK A01 T01050034  RH  061%=      5-min Rain = 0
KMC1 011916Z 03010KT 11/04 A3028 RMK A01 T01070035  RH  061%=      5-min Rain = 0
KMC1 011917Z 02008KT 11/03 A3028 RMK A01 T01070034  RH  060%=      5-min Rain = 0
KMC1 011918Z 02010KT 11/04 A3028 RMK A01 T01080035  RH  061%=      5-min Rain = 0
KMC1 011919Z 04013KT 11/03 A3028 RMK A01 T01090034  RH  060%=      5-min Rain = 0
KMC1 011920Z 05008G14KT 11/03 A3028 RMK A01 T01080033  RH  060%=      5-min Rain = 0
KMC1 011921Z 05009G14KT 11/04 A3028 RMK A01 T01080036  RH  061%=      5-min Rain = 0
KMC1 011922Z 04011KT 11/03 A3029 RMK A01 T01090034  RH  060%=      5-min Rain = 0
KMC1 011923Z 03007G12KT 11/03 A3029 RMK A01 T01080032  RH  059%=      5-min Rain = 0
KMC1 011924Z 03011KT 11/03 A3029 RMK A01 T01080034  RH  060%=      5-min Rain = 0
KMC1 011925Z 02012KT 11/03 A3028 RMK A01 T01090031  RH  059%=      5-min Rain = 0
KMC1 011926Z 04010KT 11/03 A3028 RMK A01 T01090031  RH  059%=      5-min Rain = 0
KMC1 011927Z 03014KT 11/03 A3028 RMK A01 T01080032  RH  059%=      5-min Rain = 0
KMC1 011928Z 03011KT 11/03 A3028 RMK A01 T01090032  RH  059%=      5-min Rain = 0
KMC1 011929Z 03011KT 11/03 A3028 RMK A01 T01090034  RH  059%=      5-min Rain = 0
KMC1 011930Z 05007KT 11/04 A3028 RMK A01 T01100038  RH  061%=      5-min Rain = 0
KMC1 011931Z 04008KT 11/04 A3028 RMK A01 T01130036  RH  059%=      5-min Rain = 0
KMC1 011932Z 03010KT 11/04 A3028 RMK A01 T01130037  RH  059%=      5-min Rain = 0
KMC1 011933Z 04011KT 11/04 A3028 RMK A01 T01130036  RH  059%=      5-min Rain = 0
KMC1 011934Z 03011G17KT 11/04 A3028 RMK A01 T01130036  RH  059%=      5-min Rain = 0
KMC1 011935Z 03012KT 11/03 A3028 RMK A01 T01130034  RH  058%=      5-min Rain = 0
KMC1 011936Z 05013KT 11/03 A3028 RMK A01 T01110034  RH  059%=      5-min Rain = 0
KMC1 011937Z 04012KT 11/03 A3028 RMK A01 T01100032  RH  058%=      5-min Rain = 0
KMC1 011938Z 03009KT 11/03 A3027 RMK A01 T01080031  RH  059%=      5-min Rain = 0
KMC1 011939Z 04009KT 11/04 A3027 RMK A01 T01080035  RH  060%=      5-min Rain = 0
KMC1 011940Z 03010KT 11/03 A3027 RMK A01 T01090032  RH  059%=      5-min Rain = 0
KMC1 011941Z 03012KT 11/03 A3027 RMK A01 T01090034  RH  060%=      5-min Rain = 0
KMC1 011942Z 01011KT 11/04 A3027 RMK A01 T01090035  RH  060%=      5-min Rain = 0
KMC1 011943Z 01011KT 11/03 A3027 RMK A01 T01090032  RH  059%=      5-min Rain = 0
KMC1 011944Z 36009KT 11/03 A3028 RMK A01 T01070031  RH  059%=      5-min Rain = 0
KMC1 011945Z 35010KT 11/03 A3028 RMK A01 T01060031  RH  060%=      5-min Rain = 0
KMC1 011946Z 36012KT 11/03 A3028 RMK A01 T01050030  RH  060%=      5-min Rain = 0
KMC1 011947Z 35011KT 11/03 A3028 RMK A01 T01050031  RH  060%=      5-min Rain = 0
KMC1 011948Z 00011KT 11/03 A3028 RMK A01 T01050032  RH  060%=      5-min Rain = 0
KMC1 011949Z 01011KT 10/03 A3028 RMK A01 T01040031  RH  061%=      5-min Rain = 0
KMC1 011950Z 01012KT 11/03 A3027 RMK A01 T01050032  RH  061%=      5-min Rain = 0
KMC1 011951Z 02010KT 10/03 A3027 RMK A01 T01030029  RH  060%=      5-min Rain = 0
KMC1 011952Z 00012KT 10/03 A3027 RMK A01 T01030030  RH  061%=      5-min Rain = 0
KMC1 011953Z 36012KT 10/03 A3027 RMK A01 T01030031  RH  061%=      5-min Rain = 0
KMC1 011954Z 00011KT 10/03 A3027 RMK A01 T01040032  RH  061%=      5-min Rain = 0
KMC1 011955Z 01010KT 10/03 A3027 RMK A01 T01040032  RH  061%=      5-min Rain = 0
KMC1 011956Z 03009KT 10/03 A3028 RMK A01 T01040032  RH  061%=      5-min Rain = 0
KMC1 011957Z 02011KT 11/03 A3028 RMK A01 T01050030  RH  060%=      5-min Rain = 0
KMC1 011958Z 02011KT 10/03 A3028 RMK A01 T01040030  RH  060%=      5-min Rain = 0
KMC1 011959Z 01013KT 10/03 A3028 RMK A01 T01020028  RH  060%=      5-min Rain = 0
KMC1 012000Z 01011KT 10/03 A3028 RMK A01 T01010029  RH  061%=      5-min Rain = 0
KMC1 012001Z 01009KT 10/03 A3028 RMK A01 T01010029  RH  061%=      5-min Rain = 0
KMC1 012002Z 02006KT 10/03 A3028 RMK A01 T01020031  RH  061%=      5-min Rain = 0
KMC1 012003Z 02006KT 10/03 A3028 RMK A01 T01030032  RH  061%=      5-min Rain = 0
KMC1 012004Z 01006KT 10/03 A3028 RMK A01 T01040032  RH  061%=      5-min Rain = 0
KMC1 012005Z 01008KT 10/03 A3027 RMK A01 T01040031  RH  060%=      5-min Rain = 0
KMC1 012006Z 02005KT 10/03 A3027 RMK A01 T01040032  RH  061%=      5-min Rain = 0
KMC1 012007Z 01009KT 11/04 A3027 RMK A01 T01050035  RH  062%=      5-min Rain = 0
KMC1 012008Z 36009KT 11/03 A3027 RMK A01 T01050032  RH  060%=      5-min Rain = 0
KMC1 012009Z 01010KT 10/03 A3027 RMK A01 T01030030  RH  060%=      5-min Rain = 0
KMC1 012010Z 01010KT 10/03 A3027 RMK A01 T01010029  RH  061%=      5-min Rain = 0
KMC1 012011Z 35008KT 10/03 A3027 RMK A01 T01000030  RH  062%=      5-min Rain = 0
KMC1 012012Z 35008KT 10/03 A3027 RMK A01 T01000032  RH  063%=      5-min Rain = 0
KMC1 012013Z 35006KT 10/03 A3027 RMK A01 T01010032  RH  062%=      5-min Rain = 0
KMC1 012014Z 01008KT 10/03 A3027 RMK A01 T01010033  RH  063%=      5-min Rain = 0
KMC1 012015Z 01010KT 10/03 A3027 RMK A01 T01020032  RH  062%=      5-min Rain = 0
KMC1 012016Z 00011KT 10/03 A3027 RMK A01 T01020032  RH  062%=      5-min Rain = 0
KMC1 012017Z 01008KT 10/03 A3027 RMK A01 T01020032  RH  062%=      5-min Rain = 0
KMC1 012018Z 01006KT 10/03 A3027 RMK A01 T01020033  RH  062%=      5-min Rain = 0
KMC1 012019Z 01007KT 10/03 A3027 RMK A01 T01030033  RH  062%=      5-min Rain = 0
KMC1 012020Z 01009G14KT 10/03 A3027 RMK A01 T01040031  RH  061%=      5-min Rain = 0
KMC1 012021Z 01008KT 10/03 A3027 RMK A01 T01020031  RH  061%=      5-min Rain = 0
KMC1 012022Z 00005KT 10/03 A3027 RMK A01 T01020032  RH  062%=      5-min Rain = 0
KMC1 012023Z 00010G15KT 10/03 A3027 RMK A01 T01020032  RH  062%=      5-min Rain = 0
KMC1 012024Z 01012KT 10/03 A3027 RMK A01 T01020031  RH  061%=      5-min Rain = 0
KMC1 012025Z 01010KT 10/03 A3027 RMK A01 T01000030  RH  061%=      5-min Rain = 0
KMC1 012026Z 01009KT 10/03 A3027 RMK A01 T01000031  RH  062%=      5-min Rain = 0
KMC1 012027Z 36008KT 10/03 A3027 RMK A01 T00990030  RH  062%=      5-min Rain = 0
KMC1 012028Z 35012KT 10/03 A3027 RMK A01 T01000034  RH  063%=      5-min Rain = 0
KMC1 012029Z 35012KT 10/03 A3027 RMK A01 T01000032  RH  063%=      5-min Rain = 0
KMC1 012030Z 35009KT 10/03 A3027 RMK A01 T00990031  RH  063%=      5-min Rain = 0
KMC1 012031Z 34009KT 10/03 A3027 RMK A01 T00980032  RH  064%=      5-min Rain = 0
KMC1 012032Z 34010KT 10/03 A3027 RMK A01 T00980030  RH  063%=      5-min Rain = 0
KMC1 012033Z 33011KT 10/03 A3027 RMK A01 T00970030  RH  063%=      5-min Rain = 0
KMC1 012034Z 33011KT 10/03 A3027 RMK A01 T00960030  RH  063%=      5-min Rain = 0
KMC1 012035Z 35009KT 10/03 A3027 RMK A01 T00960030  RH  063%=      5-min Rain = 0
KMC1 012036Z 33010KT 10/03 A3027 RMK A01 T00960030  RH  064%=      5-min Rain = 0
KMC1 012037Z 32010KT 10/03 A3027 RMK A01 T00950029  RH  063%=      5-min Rain = 0
KMC1 012038Z 32010KT 10/03 A3027 RMK A01 T00950029  RH  064%=      5-min Rain = 0
KMC1 012039Z 34010KT 09/03 A3027 RMK A01 T00940029  RH  064%=      5-min Rain = 0
KMC1 012040Z 35009KT 10/03 A3027 RMK A01 T00950031  RH  065%=      5-min Rain = 0
KMC1 012041Z 00010KT 10/03 A3028 RMK A01 T00950031  RH  065%=      5-min Rain = 0
KMC1 012042Z 36009KT 10/03 A3028 RMK A01 T00950031  RH  064%=      5-min Rain = 0
KMC1 012043Z 34010KT 09/03 A3028 RMK A01 T00940030  RH  065%=      5-min Rain = 0
KMC1 012044Z 35010KT 09/03 A3028 RMK A01 T00940030  RH  065%=      5-min Rain = 0
KMC1 012045Z 34009G14KT 09/03 A3028 RMK A01 T00940031  RH  065%=      5-min Rain = 0
KMC1 012046Z 34009KT 09/03 A3028 RMK A01 T00940030  RH  064%=      5-min Rain = 0
KMC1 012047Z 34010KT 09/03 A3028 RMK A01 T00930028  RH  064%=      5-min Rain = 0
KMC1 012048Z 34011KT 09/03 A3028 RMK A01 T00930028  RH  064%=      5-min Rain = 0
KMC1 012049Z 35012KT 09/03 A3028 RMK A01 T00920028  RH  064%=      5-min Rain = 0
KMC1 012050Z 34010KT 09/03 A3028 RMK A01 T00920029  RH  065%=      5-min Rain = 0
KMC1 012051Z 34007KT 09/03 A3028 RMK A01 T00920029  RH  065%=      5-min Rain = 0
KMC1 012052Z 34009KT 09/03 A3028 RMK A01 T00920028  RH  064%=      5-min Rain = 0
KMC1 012053Z 35009KT 09/03 A3028 RMK A01 T00920028  RH  064%=      5-min Rain = 0
KMC1 012054Z 34010KT 09/03 A3028 RMK A01 T00920028  RH  064%=      5-min Rain = 0
KMC1 012055Z 35010KT 09/03 A3028 RMK A01 T00920027  RH  064%=      5-min Rain = 0
KMC1 012056Z 34009KT 09/03 A3028 RMK A01 T00910027  RH  064%=      5-min Rain = 0
KMC1 012057Z 35008KT 09/03 A3028 RMK A01 T00910027  RH  064%=      5-min Rain = 0
KMC1 012058Z 35008KT 09/03 A3028 RMK A01 T00920030  RH  065%=      5-min Rain = 0
KMC1 012059Z 35010KT 09/03 A3028 RMK A01 T00920030  RH  065%=      5-min Rain = 0
KMC1 012100Z 34011G16KT 09/03 A3028 RMK A01 T00920028  RH  064%=      5-min Rain = 0
KMC1 012101Z 34010KT 09/03 A3028 RMK A01 T00910027  RH  064%=      5-min Rain = 0
KMC1 012102Z 34010KT 09/03 A3028 RMK A01 T00900026  RH  064%=      5-min Rain = 0
KMC1 012103Z 35013KT 09/03 A3029 RMK A01 T00890026  RH  065%=      5-min Rain = 0
KMC1 012104Z 35010KT 09/03 A3029 RMK A01 T00890026  RH  065%=      5-min Rain = 0
KMC1 012105Z 34008KT 09/03 A3029 RMK A01 T00890028  RH  066%=      5-min Rain = 0
KMC1 012106Z 34010KT 09/03 A3028 RMK A01 T00890028  RH  065%=      5-min Rain = 0
KMC1 012107Z 34010KT 09/03 A3028 RMK A01 T00890027  RH  065%=      5-min Rain = 0
KMC1 012108Z 34011KT 09/03 A3028 RMK A01 T00890026  RH  065%=      5-min Rain = 0
KMC1 012109Z 34009KT 09/03 A3028 RMK A01 T00890027  RH  065%=      5-min Rain = 0
KMC1 012110Z 34009KT 09/03 A3028 RMK A01 T00890027  RH  065%=      5-min Rain = 0
KMC1 012111Z 33010KT 09/03 A3028 RMK A01 T00890026  RH  065%=      5-min Rain = 0
KMC1 012112Z 35010KT 09/03 A3028 RMK A01 T00890025  RH  064%=      5-min Rain = 0
KMC1 012113Z 34011KT 09/02 A3028 RMK A01 T00880024  RH  064%=      5-min Rain = 0
KMC1 012114Z 35010KT 09/02 A3028 RMK A01 T00870023  RH  064%=      5-min Rain = 0
KMC1 012115Z 35014KT 09/02 A3028 RMK A01 T00870024  RH  065%=      5-min Rain = 0
KMC1 012116Z 34009KT 09/02 A3028 RMK A01 T00870024  RH  065%=      5-min Rain = 0
KMC1 012117Z 34010KT 09/03 A3028 RMK A01 T00870025  RH  065%=      5-min Rain = 0
KMC1 012118Z 33009KT 09/02 A3028 RMK A01 T00880024  RH  064%=      5-min Rain = 0
KMC1 012119Z 33009KT 09/02 A3028 RMK A01 T00880024  RH  064%=      5-min Rain = 0
KMC1 012120Z 33008KT 09/03 A3028 RMK A01 T00880025  RH  064%=      5-min Rain = 0
KMC1 012121Z 33009KT 09/02 A3028 RMK A01 T00890024  RH  064%=      5-min Rain = 0
KMC1 012122Z 34008G14KT 09/03 A3028 RMK A01 T00890025  RH  064%=      5-min Rain = 0
KMC1 012123Z 34009G14KT 09/03 A3028 RMK A01 T00900025  RH  064%=      5-min Rain = 0
KMC1 012124Z 33008G13KT 09/03 A3028 RMK A01 T00900025  RH  064%=      5-min Rain = 0
KMC1 012125Z 33009KT 09/03 A3028 RMK A01 T00900025  RH  064%=      5-min Rain = 0
KMC1 012126Z 33010KT 09/02 A3028 RMK A01 T00900024  RH  063%=      5-min Rain = 0
KMC1 012127Z 33009G15KT 09/02 A3028 RMK A01 T00900024  RH  063%=      5-min Rain = 0
KMC1 012128Z 33011KT 09/02 A3028 RMK A01 T00900024  RH  063%=      5-min Rain = 0
KMC1 012129Z 33011KT 09/02 A3028 RMK A01 T00900023  RH  063%=      5-min Rain = 0
KMC1 012130Z 33009KT 09/02 A3028 RMK A01 T00900023  RH  063%=      5-min Rain = 0
KMC1 012131Z 33010KT 09/02 A3028 RMK A01 T00890024  RH  063%=      5-min Rain = 0
KMC1 012132Z 33010KT 09/02 A3028 RMK A01 T00890023  RH  063%=      5-min Rain = 0
KMC1 012133Z 34008KT 09/02 A3028 RMK A01 T00890022  RH  063%=      5-min Rain = 0
KMC1 012134Z 34009KT 09/02 A3028 RMK A01 T00890024  RH  064%=      5-min Rain = 0
KMC1 012135Z 33009KT 09/02 A3028 RMK A01 T00890023  RH  063%=      5-min Rain = 0
KMC1 012136Z 35008KT 09/03 A3028 RMK A01 T00900025  RH  064%=      5-min Rain = 0
KMC1 012137Z 35011KT 09/03 A3028 RMK A01 T00910026  RH  064%=      5-min Rain = 0
KMC1 012138Z 34011KT 09/03 A3028 RMK A01 T00910025  RH  063%=      5-min Rain = 0
KMC1 012139Z 34011KT 09/02 A3028 RMK A01 T00900022  RH  062%=      5-min Rain = 0
KMC1 012140Z 34008KT 09/02 A3028 RMK A01 T00900023  RH  063%=      5-min Rain = 0
KMC1 012141Z 33008KT 09/02 A3028 RMK A01 T00900024  RH  063%=      5-min Rain = 0
KMC1 012142Z 35009KT 09/02 A3028 RMK A01 T00890023  RH  063%=      5-min Rain = 0
KMC1 012143Z 34010KT 09/02 A3028 RMK A01 T00890022  RH  063%=      5-min Rain = 0
KMC1 012144Z 33010KT 09/02 A3028 RMK A01 T00890022  RH  063%=      5-min Rain = 0
KMC1 012145Z 33010KT 09/02 A3028 RMK A01 T00890022  RH  063%=      5-min Rain = 0
KMC1 012146Z 34008KT 09/02 A3028 RMK A01 T00890022  RH  063%=      5-min Rain = 0
KMC1 012147Z 34008KT 09/02 A3029 RMK A01 T00890023  RH  063%=      5-min Rain = 0
KMC1 012148Z 34010KT 09/02 A3029 RMK A01 T00900022  RH  063%=      5-min Rain = 0
KMC1 012149Z 34011KT 09/02 A3029 RMK A01 T00890022  RH  063%=      5-min Rain = 0
KMC1 012150Z 34010KT 09/02 A3029 RMK A01 T00890022  RH  063%=      5-min Rain = 0
KMC1 012151Z 35010KT 09/02 A3029 RMK A01 T00890022  RH  063%=      5-min Rain = 0
KMC1 012152Z 33007KT 09/02 A3029 RMK A01 T00890023  RH  063%=      5-min Rain = 0
KMC1 012153Z 33009KT 09/02 A3029 RMK A01 T00900023  RH  063%=      5-min Rain = 0
KMC1 012154Z 33010KT 09/02 A3028 RMK A01 T00900022  RH  062%=      5-min Rain = 0
KMC1 012155Z 33007KT 09/02 A3028 RMK A01 T00900022  RH  062%=      5-min Rain = 0
KMC1 012156Z 33008KT 09/02 A3028 RMK A01 T00900023  RH  063%=      5-min Rain = 0
KMC1 012157Z 33007KT 09/02 A3028 RMK A01 T00910022  RH  062%=      5-min Rain = 0
KMC1 012158Z 34008KT 09/02 A3028 RMK A01 T00910024  RH  063%=      5-min Rain = 0
KMC1 012159Z 34008KT 09/02 A3028 RMK A01 T00920023  RH  062%=      5-min Rain = 0
KMC1 012200Z 34008KT 09/02 A3028 RMK A01 T00920023  RH  062%=      5-min Rain = 0
KMC1 012201Z 35005KT 09/02 A3028 RMK A01 T00920023  RH  062%=      5-min Rain = 0
KMC1 012202Z 35007KT 09/02 A3028 RMK A01 T00920024  RH  063%=      5-min Rain = 0
KMC1 012203Z 35007KT 09/03 A3029 RMK A01 T00930025  RH  063%=      5-min Rain = 0
KMC1 012204Z 34008KT 09/03 A3029 RMK A01 T00920025  RH  063%=      5-min Rain = 0
KMC1 012205Z 34009KT 09/02 A3029 RMK A01 T00930023  RH  062%=      5-min Rain = 0
KMC1 012206Z 34008KT 09/02 A3029 RMK A01 T00920022  RH  062%=      5-min Rain = 0
KMC1 012207Z 33007KT 09/02 A3029 RMK A01 T00920022  RH  062%=      5-min Rain = 0
KMC1 012208Z 34008KT 09/02 A3029 RMK A01 T00920023  RH  062%=      5-min Rain = 0
KMC1 012209Z 35008KT 09/02 A3029 RMK A01 T00910022  RH  062%=      5-min Rain = 0
KMC1 012210Z 34009KT 09/02 A3029 RMK A01 T00910024  RH  063%=      5-min Rain = 0
KMC1 012211Z 34011KT 09/02 A3029 RMK A01 T00920022  RH  062%=      5-min Rain = 0
KMC1 012212Z 34010KT 09/02 A3029 RMK A01 T00920022  RH  062%=      5-min Rain = 0
KMC1 012213Z 35009KT 09/02 A3029 RMK A01 T00910021  RH  062%=      5-min Rain = 0
KMC1 012214Z 34008KT 09/02 A3029 RMK A01 T00910023  RH  063%=      5-min Rain = 0
KMC1 012215Z 33010KT 09/02 A3029 RMK A01 T00910023  RH  062%=      5-min Rain = 0
KMC1 012216Z 33008KT 09/02 A3029 RMK A01 T00910021  RH  062%=      5-min Rain = 0
KMC1 012217Z 34008KT 09/02 A3029 RMK A01 T00910022  RH  062%=      5-min Rain = 0
KMC1 012218Z 32009KT 09/02 A3029 RMK A01 T00910022  RH  062%=      5-min Rain = 0
KMC1 012219Z 34009KT 09/02 A3029 RMK A01 T00910022  RH  062%=      5-min Rain = 0
KMC1 012220Z 33008KT 09/02 A3029 RMK A01 T00920022  RH  062%=      5-min Rain = 0
KMC1 012221Z 34010KT 09/02 A3029 RMK A01 T00920022  RH  062%=      5-min Rain = 0
KMC1 012222Z 32009KT 09/02 A3029 RMK A01 T00920022  RH  062%=      5-min Rain = 0
KMC1 012223Z 32009KT 09/02 A3029 RMK A01 T00910022  RH  062%=      5-min Rain = 0
KMC1 012224Z 34009KT 09/02 A3029 RMK A01 T00910021  RH  062%=      5-min Rain = 0
KMC1 012225Z 35011G16KT 09/02 A3029 RMK A01 T00910022  RH  062%=      5-min Rain = 0
KMC1 012226Z 34009KT 09/02 A3029 RMK A01 T00910022  RH  062%=      5-min Rain = 0
KMC1 012227Z 34010KT 09/02 A3029 RMK A01 T00910022  RH  062%=      5-min Rain = 0
KMC1 012228Z 34007KT 09/02 A3029 RMK A01 T00910022  RH  062%=      5-min Rain = 0
KMC1 012229Z 34008KT 09/02 A3029 RMK A01 T00910022  RH  062%=      5-min Rain = 0
KMC1 012230Z 34008KT 09/02 A3029 RMK A01 T00910021  RH  062%=      5-min Rain = 0
KMC1 012231Z 34008KT 09/02 A3029 RMK A01 T00910022  RH  062%=      5-min Rain = 0
KMC1 012232Z 33010KT 09/02 A3029 RMK A01 T00910021  RH  061%=      5-min Rain = 0
KMC1 012233Z 33009KT 09/02 A3029 RMK A01 T00910019  RH  061%=      5-min Rain = 0
KMC1 012234Z 34008KT 09/02 A3029 RMK A01 T00910021  RH  062%=      5-min Rain = 0
KMC1 012235Z 34008KT 09/02 A3029 RMK A01 T00910022  RH  062%=      5-min Rain = 0
KMC1 012236Z 34010KT 09/02 A3029 RMK A01 T00910020  RH  061%=      5-min Rain = 0
KMC1 012237Z 34008KT 09/02 A3029 RMK A01 T00910020  RH  061%=      5-min Rain = 0
KMC1 012238Z 34007KT 09/02 A3029 RMK A01 T00910022  RH  062%=      5-min Rain = 0
KMC1 012239Z 35006KT 09/02 A3029 RMK A01 T00910023  RH  063%=      5-min Rain = 0
KMC1 012240Z 35009KT 09/02 A3029 RMK A01 T00910023  RH  062%=      5-min Rain = 0
KMC1 012241Z 35007KT 09/02 A3029 RMK A01 T00910022  RH  062%=      5-min Rain = 0
KMC1 012242Z 35008KT 09/02 A3029 RMK A01 T00910022  RH  062%=      5-min Rain = 0
KMC1 012243Z 35007KT 09/02 A3029 RMK A01 T00920022  RH  062%=      5-min Rain = 0
KMC1 012244Z 35007KT 09/02 A3029 RMK A01 T00920024  RH  063%=      5-min Rain = 0
KMC1 012245Z 34008KT 09/02 A3029 RMK A01 T00920022  RH  062%=      5-min Rain = 0
KMC1 012246Z 35007KT 09/02 A3029 RMK A01 T00920021  RH  061%=      5-min Rain = 0
KMC1 012247Z 34008KT 09/02 A3029 RMK A01 T00920022  RH  062%=      5-min Rain = 0
KMC1 012248Z 34008KT 09/02 A3029 RMK A01 T00920021  RH  061%=      5-min Rain = 0
KMC1 012249Z 34010KT 09/02 A3029 RMK A01 T00920019  RH  060%=      5-min Rain = 0
KMC1 012250Z 36010KT 09/02 A3029 RMK A01 T00920020  RH  061%=      5-min Rain = 0
KMC1 012251Z 36008KT 09/02 A3029 RMK A01 T00920021  RH  061%=      5-min Rain = 0
KMC1 012252Z 33006KT 09/02 A3029 RMK A01 T00920021  RH  061%=      5-min Rain = 0
KMC1 012253Z 34006G11KT 09/02 A3029 RMK A01 T00920021  RH  061%=      5-min Rain = 0
KMC1 012254Z 34009KT 09/02 A3029 RMK A01 T00920022  RH  061%=      5-min Rain = 0
KMC1 012255Z 34008KT 09/02 A3029 RMK A01 T00920020  RH  061%=      5-min Rain = 0
KMC1 012256Z 34007KT 09/02 A3029 RMK A01 T00920019  RH  060%=      5-min Rain = 0
KMC1 012257Z 35008KT 09/02 A3029 RMK A01 T00920020  RH  061%=      5-min Rain = 0
KMC1 012258Z 35009KT 09/02 A3029 RMK A01 T00920021  RH  061%=      5-min Rain = 0
KMC1 012259Z 34006KT 09/02 A3029 RMK A01 T00920021  RH  061%=      5-min Rain = 0
KMC1 012300Z 35006KT 09/02 A3029 RMK A01 T00930022  RH  061%=      5-min Rain = 0
KMC1 012301Z 34006KT 09/02 A3029 RMK A01 T00930023  RH  061%=      5-min Rain = 0
KMC1 012302Z 34008KT 09/02 A3029 RMK A01 T00930020  RH  060%=      5-min Rain = 0
KMC1 012303Z 34009KT 09/02 A3029 RMK A01 T00930020  RH  060%=      5-min Rain = 0
KMC1 012304Z 33007KT 09/02 A3029 RMK A01 T00920020  RH  060%=      5-min Rain = 0
KMC1 012305Z 34006KT 09/02 A3029 RMK A01 T00930022  RH  061%=      5-min Rain = 0
KMC1 012306Z 34006KT 09/02 A3029 RMK A01 T00930022  RH  061%=      5-min Rain = 0
KMC1 012307Z 34008KT 09/02 A3029 RMK A01 T00930022  RH  061%=      5-min Rain = 0
KMC1 012308Z 35005KT 09/02 A3029 RMK A01 T00920021  RH  061%=      5-min Rain = 0
KMC1 012309Z 35006KT 09/02 A3029 RMK A01 T00930022  RH  061%=      5-min Rain = 0
KMC1 012310Z 35006KT 09/02 A3029 RMK A01 T00930023  RH  061%=      5-min Rain = 0
KMC1 012311Z 36005KT 09/02 A3029 RMK A01 T00930023  RH  062%=      5-min Rain = 0
KMC1 012312Z 35004KT 09/02 A3029 RMK A01 T00930024  RH  062%=      5-min Rain = 0
KMC1 012313Z 36006KT 09/02 A3029 RMK A01 T00940024  RH  062%=      5-min Rain = 0
KMC1 012314Z 35006KT 09/02 A3029 RMK A01 T00930023  RH  061%=      5-min Rain = 0
KMC1 012315Z 00006KT 09/02 A3029 RMK A01 T00930022  RH  061%=      5-min Rain = 0
KMC1 012316Z 34005KT 09/02 A3029 RMK A01 T00940022  RH  061%=      5-min Rain = 0
KMC1 012317Z 35006KT 09/02 A3029 RMK A01 T00930022  RH  061%=      5-min Rain = 0
KMC1 012318Z 34005KT 09/02 A3029 RMK A01 T00930022  RH  061%=      5-min Rain = 0
KMC1 012319Z 35006KT 09/02 A3029 RMK A01 T00930023  RH  062%=      5-min Rain = 0
KMC1 012320Z 35008KT 09/02 A3029 RMK A01 T00930021  RH  061%=      5-min Rain = 0
KMC1 012321Z 35008KT 09/02 A3029 RMK A01 T00930021  RH  061%=      5-min Rain = 0
KMC1 012322Z 33007KT 09/02 A3029 RMK A01 T00930021  RH  060%=      5-min Rain = 0
KMC1 012323Z 33005KT 09/02 A3029 RMK A01 T00930021  RH  061%=      5-min Rain = 0
KMC1 012324Z 34006KT 09/02 A3029 RMK A01 T00930021  RH  061%=      5-min Rain = 0
KMC1 012325Z 33005KT 09/02 A3029 RMK A01 T00930020  RH  060%=      5-min Rain = 0
KMC1 012326Z 34007KT 09/02 A3029 RMK A01 T00930020  RH  060%=      5-min Rain = 0
KMC1 012327Z 34008KT 09/02 A3029 RMK A01 T00930019  RH  060%=      5-min Rain = 0
KMC1 012328Z 35007KT 09/02 A3029 RMK A01 T00930019  RH  060%=      5-min Rain = 0
KMC1 012329Z 34007KT 09/02 A3029 RMK A01 T00930020  RH  060%=      5-min Rain = 0
KMC1 012330Z 34006KT 09/02 A3029 RMK A01 T00930020  RH  060%=      5-min Rain = 0
KMC1 012331Z 33005KT 09/02 A3029 RMK A01 T00930021  RH  060%=      5-min Rain = 0
KMC1 012332Z 34004KT 09/02 A3029 RMK A01 T00930022  RH  061%=      5-min Rain = 0
KMC1 012333Z 34005KT 09/02 A3029 RMK A01 T00930022  RH  061%=      5-min Rain = 0
KMC1 012334Z 34006KT 09/02 A3029 RMK A01 T00940020  RH  060%=      5-min Rain = 0
KMC1 012335Z 33004KT 09/02 A3029 RMK A01 T00940021  RH  060%=      5-min Rain = 0
KMC1 012336Z 33005KT 09/02 A3029 RMK A01 T00930021  RH  061%=      5-min Rain = 0
KMC1 012337Z 33004KT 09/02 A303 RMK A01 T00940022  RH  061%=      5-min Rain = 0
KMC1 012338Z 34006KT 09/02 A3029 RMK A01 T00940021  RH  060%=      5-min Rain = 0
KMC1 012339Z 33005KT 09/02 A3029 RMK A01 T00940020  RH  060%=      5-min Rain = 0
KMC1 012340Z 33004KT 09/02 A3029 RMK A01 T00940020  RH  060%=      5-min Rain = 0
KMC1 012341Z 33004KT 09/02 A3029 RMK A01 T00940021  RH  060%=      5-min Rain = 0
KMC1 012342Z 32003KT 09/02 A303 RMK A01 T00940022  RH  061%=      5-min Rain = 0
KMC1 012343Z 32005KT 09/02 A303 RMK A01 T00940023  RH  061%=      5-min Rain = 0
KMC1 012344Z 33005KT 10/02 A303 RMK A01 T00950022  RH  060%=      5-min Rain = 0
KMC1 012345Z 35005KT 10/02 A303 RMK A01 T00950022  RH  060%=      5-min Rain = 0
KMC1 012346Z 34005KT 10/02 A303 RMK A01 T00950020  RH  060%=      5-min Rain = 0
KMC1 012347Z 33005KT 10/02 A303 RMK A01 T00950020  RH  060%=      5-min Rain = 0
KMC1 012348Z 34003KT 10/02 A303 RMK A01 T00950021  RH  060%=      5-min Rain = 0
KMC1 012349Z 33002KT 10/02 A303 RMK A01 T00950022  RH  061%=      5-min Rain = 0
KMC1 012350Z 34002KT 10/02 A303 RMK A01 T00950024  RH  061%=      5-min Rain = 0
KMC1 012351Z 34003KT 10/02 A303 RMK A01 T00950024  RH  061%=      5-min Rain = 0
KMC1 012352Z 33003KT 10/02 A303 RMK A01 T00950023  RH  061%=      5-min Rain = 0
KMC1 012353Z 32003KT 10/02 A303 RMK A01 T00950024  RH  061%=      5-min Rain = 0
KMC1 012354Z 32005KT 10/02 A303 RMK A01 T00950023  RH  061%=      5-min Rain = 0
KMC1 012355Z 33004KT 10/02 A303 RMK A01 T00950022  RH  060%=      5-min Rain = 0
KMC1 012356Z 34003KT 10/02 A303 RMK A01 T00950022  RH  060%=      5-min Rain = 0
KMC1 012357Z 33004KT 09/02 A303 RMK A01 T00940021  RH  060%=      5-min Rain = 0
KMC1 012358Z 34005KT 09/02 A303 RMK A01 T00940021  RH  060%=      5-min Rain = 0
KMC1 012359Z 34003KT 09/02 A303 RMK A01 T00940020  RH  060%=      5-min Rain = 0
KMC1 020000Z 34003KT 09/02 A303 RMK A01 T00940021  RH  060%=      5-min Rain = 0
KMC1 020001Z 33002KT 09/02 A303 RMK A01 T00940022  RH  061%=      5-min Rain = 0
KMC1 020002Z 33004KT 09/02 A303 RMK A01 T00940023  RH  061%=      5-min Rain = 0
KMC1 020003Z 33005KT 10/02 A303 RMK A01 T00950022  RH  061%=      5-min Rain = 0
KMC1 020004Z 33003KT 09/02 A303 RMK A01 T00940021  RH  060%=      5-min Rain = 0
KMC1 020005Z 34003KT 09/02 A303 RMK A01 T00940022  RH  060%=      5-min Rain = 0
KMC1 020006Z 33003KT 09/02 A303 RMK A01 T00940021  RH  060%=      5-min Rain = 0
KMC1 020007Z 33003KT 09/02 A303 RMK A01 T00940021  RH  060%=      5-min Rain = 0
KMC1 020008Z 32004KT 10/02 A303 RMK A01 T00950022  RH  060%=      5-min Rain = 0
KMC1 020009Z 32003KT 09/02 A3031 RMK A01 T00940022  RH  060%=      5-min Rain = 0
KMC1 020010Z 33003KT 09/02 A3031 RMK A01 T00940023  RH  061%=      5-min Rain = 0
KMC1 020011Z 32003KT 10/02 A3031 RMK A01 T00950024  RH  061%=      5-min Rain = 0
KMC1 020012Z 33003KT 09/02 A3031 RMK A01 T00940021  RH  060%=      5-min Rain = 0
KMC1 020013Z 33004KT 09/02 A3031 RMK A01 T00940022  RH  061%=      5-min Rain = 0
KMC1 020014Z 32003KT 09/02 A3031 RMK A01 T00940022  RH  061%=      5-min Rain = 0
KMC1 020015Z 32003KT 10/02 A3031 RMK A01 T00950022  RH  061%=      5-min Rain = 0
KMC1 020016Z 32003KT 10/02 A3031 RMK A01 T00950023  RH  061%=      5-min Rain = 0
KMC1 020017Z 32004KT 09/02 A3031 RMK A01 T00940024  RH  061%=      5-min Rain = 0
KMC1 020018Z 31004KT 09/02 A3031 RMK A01 T00940022  RH  061%=      5-min Rain = 0
KMC1 020019Z 32004KT 09/02 A3031 RMK A01 T00940021  RH  060%=      5-min Rain = 0
KMC1 020020Z 31003KT 09/02 A3031 RMK A01 T00940022  RH  061%=      5-min Rain = 0
KMC1 020021Z 31003KT 09/02 A3031 RMK A01 T00940022  RH  061%=      5-min Rain = 0
KMC1 020022Z 31003KT 09/02 A3031 RMK A01 T00940022  RH  061%=      5-min Rain = 0
KMC1 020023Z 31004KT 09/02 A3031 RMK A01 T00940022  RH  061%=      5-min Rain = 0
KMC1 020024Z 31004KT 09/02 A3031 RMK A01 T00940023  RH  061%=      5-min Rain = 0
KMC1 020025Z 31003KT 09/02 A3031 RMK A01 T00940024  RH  062%=      5-min Rain = 0
KMC1 020026Z 30003KT 09/02 A3031 RMK A01 T00940024  RH  062%=      5-min Rain = 0
KMC1 020027Z 32004KT 09/02 A3031 RMK A01 T00940024  RH  062%=      5-min Rain = 0
KMC1 020028Z 31004KT 09/02 A3031 RMK A01 T00940023  RH  061%=      5-min Rain = 0
KMC1 020029Z 33006KT 09/02 A3031 RMK A01 T00940024  RH  061%=      5-min Rain = 0
KMC1 020030Z 33006KT 09/02 A3031 RMK A01 T00940021  RH  060%=      5-min Rain = 0
KMC1 020031Z 32005KT 09/02 A3031 RMK A01 T00940020  RH  060%=      5-min Rain = 0
KMC1 020032Z 33005KT 09/02 A3031 RMK A01 T00940020  RH  060%=      5-min Rain = 0
KMC1 020033Z 33005KT 10/02 A3031 RMK A01 T00950021  RH  060%=      5-min Rain = 0
KMC1 020034Z 32005KT 10/02 A3031 RMK A01 T00950022  RH  060%=      5-min Rain = 0
KMC1 020035Z 34005KT 10/02 A3031 RMK A01 T00950020  RH  060%=      5-min Rain = 0
KMC1 020036Z 33005KT 10/02 A3031 RMK A01 T00950018  RH  059%=      5-min Rain = 0
KMC1 020037Z 32006KT 10/02 A3031 RMK A01 T00950019  RH  059%=      5-min Rain = 0
KMC1 020038Z 33004KT 10/02 A3032 RMK A01 T00950019  RH  059%=      5-min Rain = 0
KMC1 020039Z 33008KT 10/02 A3032 RMK A01 T00950018  RH  059%=      5-min Rain = 0
KMC1 020040Z 33008KT 10/02 A3032 RMK A01 T00950016  RH  058%=      5-min Rain = 0
KMC1 020041Z 34008KT 10/02 A3032 RMK A01 T00960015  RH  057%=      5-min Rain = 0
KMC1 020042Z 34008KT 10/01 A3032 RMK A01 T00960014  RH  057%=      5-min Rain = 0
KMC1 020043Z 34008KT 10/01 A3032 RMK A01 T00960013  RH  056%=      5-min Rain = 0
KMC1 020044Z 33007KT 10/01 A3032 RMK A01 T00960013  RH  056%=      5-min Rain = 0
KMC1 020045Z 33008KT 10/01 A3032 RMK A01 T00960014  RH  056%=      5-min Rain = 0
KMC1 020046Z 32007KT 10/01 A3032 RMK A01 T00960014  RH  056%=      5-min Rain = 0
KMC1 020047Z 33008KT 10/01 A3032 RMK A01 T00970014  RH  056%=      5-min Rain = 0
KMC1 020048Z 32009KT 10/01 A3032 RMK A01 T00970013  RH  056%=      5-min Rain = 0
KMC1 020049Z 32009KT 10/01 A3032 RMK A01 T00960013  RH  056%=      5-min Rain = 0
KMC1 020050Z 33008G13KT 10/01 A3032 RMK A01 T00970014  RH  056%=      5-min Rain = 0
KMC1 020051Z 32008KT 10/01 A3032 RMK A01 T00960013  RH  056%=      5-min Rain = 0
KMC1 020052Z 33009KT 10/01 A3032 RMK A01 T00960013  RH  056%=      5-min Rain = 0
KMC1 020053Z 32007KT 10/01 A3032 RMK A01 T00960013  RH  056%=      5-min Rain = 0
KMC1 020054Z 32005KT 10/01 A3033 RMK A01 T00950014  RH  057%=      5-min Rain = 0
KMC1 020055Z 33007KT 10/01 A3033 RMK A01 T00950014  RH  057%=      5-min Rain = 0
KMC1 020056Z 33006KT 10/01 A3033 RMK A01 T00950014  RH  057%=      5-min Rain = 0
KMC1 020057Z 33006KT 10/01 A3033 RMK A01 T00950013  RH  057%=      5-min Rain = 0
KMC1 020058Z 32006KT 09/01 A3033 RMK A01 T00940014  RH  057%=      5-min Rain = 0
KMC1 020059Z 33007KT 09/01 A3033 RMK A01 T00940014  RH  057%=      5-min Rain = 0
KMC1 020100Z 34008KT 09/01 A3033 RMK A01 T00940013  RH  057%=      5-min Rain = 0
KMC1 020101Z 33008KT 09/01 A3033 RMK A01 T00940013  RH  057%=      5-min Rain = 0
KMC1 020102Z 34007KT 10/01 A3033 RMK A01 T00950013  RH  057%=      5-min Rain = 0
KMC1 020103Z 34007KT 09/01 A3033 RMK A01 T00940013  RH  057%=      5-min Rain = 0
KMC1 020104Z 35007KT 09/01 A3033 RMK A01 T00940013  RH  057%=      5-min Rain = 0
KMC1 020105Z 35008KT 09/01 A3033 RMK A01 T00940014  RH  057%=      5-min Rain = 0
KMC1 020106Z 35007KT 09/01 A3033 RMK A01 T00940014  RH  058%=      5-min Rain = 0
KMC1 020107Z 34008KT 09/01 A3033 RMK A01 T00940014  RH  057%=      5-min Rain = 0
KMC1 020108Z 35008KT 09/01 A3033 RMK A01 T00940013  RH  057%=      5-min Rain = 0
KMC1 020109Z 35007KT 09/01 A3033 RMK A01 T00940013  RH  057%=      5-min Rain = 0
KMC1 020110Z 35008KT 09/01 A3033 RMK A01 T00940014  RH  057%=      5-min Rain = 0
KMC1 020111Z 35008KT 09/02 A3033 RMK A01 T00940015  RH  058%=      5-min Rain = 0
KMC1 020112Z 35008KT 09/01 A3033 RMK A01 T00940013  RH  057%=      5-min Rain = 0
KMC1 020113Z 36008KT 09/01 A3033 RMK A01 T00940014  RH  057%=      5-min Rain = 0
KMC1 020114Z 35008KT 09/01 A3033 RMK A01 T00940014  RH  057%=      5-min Rain = 0
KMC1 020115Z 35008KT 09/01 A3033 RMK A01 T00940013  RH  057%=      5-min Rain = 0
KMC1 020116Z 35008KT 09/01 A3033 RMK A01 T00940013  RH  057%=      5-min Rain = 0
KMC1 020117Z 35009KT 09/01 A3033 RMK A01 T00940014  RH  057%=      5-min Rain = 0
KMC1 020118Z 35006KT 09/01 A3033 RMK A01 T00940013  RH  057%=      5-min Rain = 0
KMC1 020119Z 35006KT 09/02 A3033 RMK A01 T00940015  RH  058%=      5-min Rain = 0
KMC1 020120Z 34005KT 09/01 A3033 RMK A01 T00940014  RH  057%=      5-min Rain = 0
KMC1 020121Z 33006KT 09/01 A3033 RMK A01 T00940013  RH  057%=      5-min Rain = 0
KMC1 020122Z 33005KT 09/01 A3033 RMK A01 T00940014  RH  057%=      5-min Rain = 0
KMC1 020123Z 33005KT 09/01 A3033 RMK A01 T00940014  RH  057%=      5-min Rain = 0
KMC1 020124Z 33005KT 09/01 A3033 RMK A01 T00940013  RH  057%=      5-min Rain = 0
KMC1 020125Z 33006KT 09/01 A3033 RMK A01 T00940014  RH  057%=      5-min Rain = 0
KMC1 020126Z 32004KT 09/01 A3033 RMK A01 T00930013  RH  057%=      5-min Rain = 0
KMC1 020127Z 32004KT 09/01 A3033 RMK A01 T00940014  RH  057%=      5-min Rain = 0
KMC1 020128Z 32004KT 09/02 A3033 RMK A01 T00940015  RH  058%=      5-min Rain = 0
KMC1 020129Z 31003KT 09/01 A3033 RMK A01 T00930014  RH  058%=      5-min Rain = 0
KMC1 020130Z 32004KT 09/02 A3033 RMK A01 T00930016  RH  059%=      5-min Rain = 0
KMC1 020131Z 31004KT 09/02 A3033 RMK A01 T00930016  RH  059%=      5-min Rain = 0
KMC1 020132Z 31005KT 09/01 A3033 RMK A01 T00930014  RH  058%=      5-min Rain = 0
KMC1 020133Z 32005KT 09/01 A3033 RMK A01 T00930014  RH  058%=      5-min Rain = 0
KMC1 020134Z 31004KT 09/01 A3034 RMK A01 T00930013  RH  058%=      5-min Rain = 0
KMC1 020135Z 32007KT 09/01 A3034 RMK A01 T00930013  RH  058%=      5-min Rain = 0
KMC1 020136Z 31006KT 09/01 A3034 RMK A01 T00930013  RH  057%=      5-min Rain = 0
KMC1 020137Z 33011KT 09/01 A3034 RMK A01 T00930011  RH  057%=      5-min Rain = 0
KMC1 020138Z 34009KT 09/01 A3034 RMK A01 T00940010  RH  056%=      5-min Rain = 0
KMC1 020139Z 33009KT 09/01 A3034 RMK A01 T00940009  RH  055%=      5-min Rain = 0
KMC1 020140Z 34007KT 09/01 A3034 RMK A01 T00940009  RH  055%=      5-min Rain = 0
KMC1 020141Z 35007KT 09/01 A3034 RMK A01 T00940010  RH  056%=      5-min Rain = 0
KMC1 020142Z 35007KT 09/01 A3034 RMK A01 T00940011  RH  056%=      5-min Rain = 0
KMC1 020143Z 35006KT 09/01 A3034 RMK A01 T00940011  RH  056%=      5-min Rain = 0
KMC1 020144Z 35006KT 10/01 A3034 RMK A01 T00950013  RH  057%=      5-min Rain = 0
KMC1 020145Z 35005KT 09/01 A3034 RMK A01 T00940013  RH  057%=      5-min Rain = 0
KMC1 020146Z 35005KT 09/01 A3034 RMK A01 T00940013  RH  057%=      5-min Rain = 0
KMC1 020147Z 35005KT 09/01 A3034 RMK A01 T00940013  RH  057%=      5-min Rain = 0
KMC1 020148Z 35007KT 09/01 A3034 RMK A01 T00940013  RH  057%=      5-min Rain = 0
KMC1 020149Z 35006KT 09/01 A3034 RMK A01 T00930011  RH  057%=      5-min Rain = 0
KMC1 020150Z 35006KT 09/01 A3034 RMK A01 T00940011  RH  056%=      5-min Rain = 0
KMC1 020151Z 34006KT 09/01 A3034 RMK A01 T00940012  RH  057%=      5-min Rain = 0
KMC1 020152Z 33005KT 09/01 A3034 RMK A01 T00940013  RH  057%=      5-min Rain = 0
KMC1 020153Z 33004KT 09/01 A3034 RMK A01 T00940013  RH  057%=      5-min Rain = 0
KMC1 020154Z 33004KT 09/01 A3034 RMK A01 T00940013  RH  057%=      5-min Rain = 0
KMC1 020155Z 33005KT 09/01 A3034 RMK A01 T00930012  RH  057%=      5-min Rain = 0
KMC1 020156Z 33006KT 09/01 A3034 RMK A01 T00940011  RH  056%=      5-min Rain = 0
KMC1 020157Z 33004KT 09/01 A3034 RMK A01 T00940011  RH  056%=      5-min Rain = 0
KMC1 020158Z 33003KT 09/01 A3034 RMK A01 T00940013  RH  057%=      5-min Rain = 0
KMC1 020159Z 34005KT 09/01 A3034 RMK A01 T00930012  RH  057%=      5-min Rain = 0
KMC1 020200Z 33006KT 09/01 A3034 RMK A01 T00930011  RH  056%=      5-min Rain = 0
KMC1 020201Z 33005KT 09/01 A3034 RMK A01 T00940011  RH  056%=      5-min Rain = 0
KMC1 020202Z 33004KT 09/01 A3034 RMK A01 T00930011  RH  056%=      5-min Rain = 0
KMC1 020203Z 33004KT 09/01 A3034 RMK A01 T00940012  RH  057%=      5-min Rain = 0
KMC1 020204Z 34004KT 09/01 A3034 RMK A01 T00940012  RH  057%=      5-min Rain = 0
KMC1 020205Z 33005KT 09/01 A3034 RMK A01 T00930012  RH  057%=      5-min Rain = 0
KMC1 020206Z 33006KT 09/01 A3034 RMK A01 T00930011  RH  056%=      5-min Rain = 0
KMC1 020207Z 33004KT 09/01 A3034 RMK A01 T00930011  RH  057%=      5-min Rain = 0
KMC1 020208Z 34005KT 09/01 A3034 RMK A01 T00930012  RH  057%=      5-min Rain = 0
KMC1 020209Z 34004KT 09/01 A3034 RMK A01 T00930011  RH  057%=      5-min Rain = 0
KMC1 020210Z 33003KT 09/01 A3034 RMK A01 T00930012  RH  057%=      5-min Rain = 0
KMC1 020211Z 34005KT 09/01 A3034 RMK A01 T00930012  RH  057%=      5-min Rain = 0
KMC1 020212Z 33003KT 09/01 A3034 RMK A01 T00930012  RH  057%=      5-min Rain = 0
KMC1 020213Z 33004KT 09/01 A3034 RMK A01 T00930013  RH  057%=      5-min Rain = 0
KMC1 020214Z 33005KT 09/01 A3035 RMK A01 T00930011  RH  057%=      5-min Rain = 0
KMC1 020215Z 33004KT 09/01 A3035 RMK A01 T00930011  RH  057%=      5-min Rain = 0
KMC1 020216Z 33007KT 09/01 A3035 RMK A01 T00930010  RH  056%=      5-min Rain = 0
KMC1 020217Z 33005KT 09/01 A3035 RMK A01 T00930009  RH  056%=      5-min Rain = 0
KMC1 020218Z 33005KT 09/01 A3035 RMK A01 T00920009  RH  056%=      5-min Rain = 0
KMC1 020219Z 33005KT 09/01 A3035 RMK A01 T00930009  RH  056%=      5-min Rain = 0
KMC1 020220Z 33005KT 09/01 A3035 RMK A01 T00930010  RH  056%=      5-min Rain = 0
KMC1 020221Z 33005KT 09/01 A3035 RMK A01 T00930009  RH  056%=      5-min Rain = 0
KMC1 020222Z 33005KT 09/01 A3035 RMK A01 T00930010  RH  056%=      5-min Rain = 0
KMC1 020223Z 32005KT 09/01 A3035 RMK A01 T00930010  RH  056%=      5-min Rain = 0
KMC1 020224Z 32006KT 09/01 A3035 RMK A01 T00930009  RH  056%=      5-min Rain = 0
KMC1 020225Z 33005KT 09/01 A3035 RMK A01 T00930008  RH  055%=      5-min Rain = 0
KMC1 020226Z 33004KT 09/01 A3035 RMK A01 T00930009  RH  056%=      5-min Rain = 0
KMC1 020227Z 33004KT 09/01 A3034 RMK A01 T00930010  RH  056%=      5-min Rain = 0
KMC1 020228Z 33004KT 09/01 A3034 RMK A01 T00930009  RH  056%=      5-min Rain = 0
KMC1 020229Z 33005KT 09/01 A3034 RMK A01 T00930010  RH  056%=      5-min Rain = 0
KMC1 020230Z 34004KT 09/01 A3034 RMK A01 T00930009  RH  056%=      5-min Rain = 0
KMC1 020231Z 34003KT 09/01 A3034 RMK A01 T00930010  RH  056%=      5-min Rain = 0
KMC1 020232Z 33004KT 09/01 A3034 RMK A01 T00920011  RH  057%=      5-min Rain = 0
KMC1 020233Z 34005KT 09/01 A3034 RMK A01 T00920009  RH  056%=      5-min Rain = 0
KMC1 020234Z 34004KT 09/01 A3035 RMK A01 T00920009  RH  056%=      5-min Rain = 0
KMC1 020235Z 34004KT 09/01 A3035 RMK A01 T00920009  RH  056%=      5-min Rain = 0
KMC1 020236Z 33004KT 09/01 A3035 RMK A01 T00920009  RH  056%=      5-min Rain = 0
KMC1 020237Z 34003KT 09/01 A3035 RMK A01 T00920009  RH  056%=      5-min Rain = 0
KMC1 020238Z 34005KT 09/01 A3035 RMK A01 T00920009  RH  056%=      5-min Rain = 0
KMC1 020239Z 33005KT 09/01 A3035 RMK A01 T00920009  RH  056%=      5-min Rain = 0
KMC1 020240Z 34005KT 09/01 A3035 RMK A01 T00920008  RH  056%=      5-min Rain = 0
KMC1 020241Z 33005KT 09/01 A3035 RMK A01 T00920007  RH  055%=      5-min Rain = 0
KMC1 020242Z 34005KT 09/01 A3035 RMK A01 T00920007  RH  055%=      5-min Rain = 0
KMC1 020243Z 35005KT 09/01 A3035 RMK A01 T00920007  RH  055%=      5-min Rain = 0
KMC1 020244Z 34003KT 09/01 A3035 RMK A01 T00920008  RH  055%=      5-min Rain = 0
KMC1 020245Z 34003KT 09/01 A3035 RMK A01 T00920009  RH  056%=      5-min Rain = 0
KMC1 020246Z 33005KT 09/01 A3035 RMK A01 T00920008  RH  056%=      5-min Rain = 0
KMC1 020247Z 35003KT 09/01 A3035 RMK A01 T00920007  RH  056%=      5-min Rain = 0
KMC1 020248Z 35004KT 09/01 A3035 RMK A01 T00920008  RH  056%=      5-min Rain = 0
KMC1 020249Z 35004KT 09/01 A3035 RMK A01 T00910008  RH  056%=      5-min Rain = 0
KMC1 020250Z 35003KT 09/01 A3035 RMK A01 T00910009  RH  056%=      5-min Rain = 0
KMC1 020251Z 34002KT 09/01 A3035 RMK A01 T00910009  RH  056%=      5-min Rain = 0
KMC1 020252Z 35004KT 09/01 A3035 RMK A01 T00910008  RH  056%=      5-min Rain = 0
KMC1 020253Z 35005KT 09/01 A3035 RMK A01 T00910008  RH  056%=      5-min Rain = 0
KMC1 020254Z 33004KT 09/01 A3035 RMK A01 T00910008  RH  056%=      5-min Rain = 0
KMC1 020255Z 34004KT 09/01 A3035 RMK A01 T00910007  RH  056%=      5-min Rain = 0
KMC1 020256Z 33003KT 09/01 A3035 RMK A01 T00910007  RH  056%=      5-min Rain = 0
KMC1 020257Z 33004KT 09/01 A3035 RMK A01 T00910008  RH  056%=      5-min Rain = 0
KMC1 020258Z 34003KT 09/01 A3035 RMK A01 T00910007  RH  056%=      5-min Rain = 0
KMC1 020259Z 35003KT 09/01 A3035 RMK A01 T00910008  RH  056%=      5-min Rain = 0
KMC1 020300Z 33003KT 09/01 A3035 RMK A01 T00900009  RH  057%=      5-min Rain = 0
KMC1 020301Z 35003KT 09/01 A3035 RMK A01 T00900008  RH  056%=      5-min Rain = 0
KMC1 020302Z 34004KT 09/01 A3035 RMK A01 T00900006  RH  055%=      5-min Rain = 0
KMC1 020303Z 35004KT 09/01 A3035 RMK A01 T00900006  RH  056%=      5-min Rain = 0
KMC1 020304Z 36005KT 09/01 A3035 RMK A01 T00900006  RH  056%=      5-min Rain = 0
KMC1 020305Z 35005KT 09/01 A3035 RMK A01 T00900005  RH  055%=      5-min Rain = 0
KMC1 020306Z 35004KT 09/00 A3035 RMK A01 T00900003  RH  055%=      5-min Rain = 0
KMC1 020307Z 35004KT 09/01 A3035 RMK A01 T00910005  RH  055%=      5-min Rain = 0
KMC1 020308Z 35005KT 09/01 A3035 RMK A01 T00900006  RH  055%=      5-min Rain = 0
KMC1 020309Z 36004KT 09/01 A3035 RMK A01 T00900005  RH  055%=      5-min Rain = 0
KMC1 020310Z 36005KT 09/01 A3035 RMK A01 T00900005  RH  055%=      5-min Rain = 0
KMC1 020311Z 34004KT 09/00 A3035 RMK A01 T00890004  RH  055%=      5-min Rain = 0
KMC1 020312Z 35006KT 09/00 A3035 RMK A01 T00890003  RH  055%=      5-min Rain = 0
KMC1 020313Z 35005KT 09/00 A3035 RMK A01 T00890001  RH  054%=      5-min Rain = 0
KMC1 020314Z 35005KT 09/00 A3035 RMK A01 T00900002  RH  054%=      5-min Rain = 0
KMC1 020315Z 35004KT 09/00 A3035 RMK A01 T00890002  RH  054%=      5-min Rain = 0
KMC1 020316Z 35006KT 09/00 A3035 RMK A01 T00890003  RH  055%=      5-min Rain = 0
KMC1 020317Z 35007KT 09/00 A3035 RMK A01 T00880000  RH  054%=      5-min Rain = 0
KMC1 020318Z 36007KT 09/00 A3035 RMK A01 T00880000  RH  054%=      5-min Rain = 0
KMC1 020319Z 36006KT 09/M00 A3035 RMK A01 T00881001  RH  054%=      5-min Rain = 0
KMC1 020320Z 35006KT 09/M00 A3035 RMK A01 T00871002  RH  053%=      5-min Rain = 0
KMC1 020321Z 35006KT 09/00 A3035 RMK A01 T008700-0  RH  054%=      5-min Rain = 0
KMC1 020322Z 35005KT 09/00 A3035 RMK A01 T00860001  RH  055%=      5-min Rain = 0
KMC1 020323Z 35005KT 09/00 A3035 RMK A01 T00850000  RH  055%=      5-min Rain = 0
KMC1 020324Z 35005KT 08/00 A3035 RMK A01 T00840001  RH  056%=      5-min Rain = 0
KMC1 020325Z 35005KT 08/00 A3035 RMK A01 T00830001  RH  056%=      5-min Rain = 0
KMC1 020326Z 35006KT 08/00 A3035 RMK A01 T00820001  RH  056%=      5-min Rain = 0
KMC1 020327Z 35005KT 08/00 A3035 RMK A01 T00810000  RH  057%=      5-min Rain = 0
KMC1 020328Z 35005KT 08/00 A3035 RMK A01 T00800000  RH  057%=      5-min Rain = 0
KMC1 020329Z 35004KT 08/00 A3035 RMK A01 T00800000  RH  057%=      5-min Rain = 0
KMC1 020330Z 36005KT 08/00 A3035 RMK A01 T00790000  RH  057%=      5-min Rain = 0
KMC1 020331Z 35005KT 08/00 A3035 RMK A01 T007900-0  RH  058%=      5-min Rain = 0
KMC1 020332Z 35006KT 08/M00 A3035 RMK A01 T00781001  RH  057%=      5-min Rain = 0
KMC1 020333Z 35006KT 08/M00 A3035 RMK A01 T00781001  RH  057%=      5-min Rain = 0
KMC1 020334Z 35006KT 08/M00 A3035 RMK A01 T00781002  RH  057%=      5-min Rain = 0
KMC1 020335Z 00006KT 08/M00 A3035 RMK A01 T00781004  RH  056%=      5-min Rain = 0
KMC1 020336Z 36007KT 08/M00 A3035 RMK A01 T00781004  RH  056%=      5-min Rain = 0
KMC1 020337Z 00007KT 08/M01 A3035 RMK A01 T00781007  RH  055%=      5-min Rain = 0
KMC1 020338Z 00007KT 08/M01 A3035 RMK A01 T00781008  RH  054%=      5-min Rain = 0
KMC1 020339Z 00006KT 08/M01 A3035 RMK A01 T00791008  RH  054%=      5-min Rain = 0
KMC1 020340Z 01008KT 08/M01 A3035 RMK A01 T00791009  RH  054%=      5-min Rain = 0
KMC1 020341Z 00006KT 08/M01 A3035 RMK A01 T00781011  RH  053%=      5-min Rain = 0
KMC1 020342Z 00007KT 08/M01 A3035 RMK A01 T00781011  RH  054%=      5-min Rain = 0
KMC1 020343Z 36008KT 08/M01 A3035 RMK A01 T00771013  RH  053%=      5-min Rain = 0
KMC1 020344Z 36008KT 08/M02 A3035 RMK A01 T00771015  RH  052%=      5-min Rain = 0
KMC1 020345Z 00007KT 08/M02 A3035 RMK A01 T00771015  RH  052%=      5-min Rain = 0
KMC1 020346Z 01006KT 08/M02 A3035 RMK A01 T00771015  RH  052%=      5-min Rain = 0
KMC1 020347Z 01006KT 08/M02 A3035 RMK A01 T00761016  RH  052%=      5-min Rain = 0
KMC1 020348Z 01006KT 08/M02 A3035 RMK A01 T00761016  RH  052%=      5-min Rain = 0
KMC1 020349Z 01007KT 08/M02 A3035 RMK A01 T00751017  RH  052%=      5-min Rain = 0
KMC1 020350Z 00005KT 08/M02 A3035 RMK A01 T00751018  RH  052%=      5-min Rain = 0
KMC1 020351Z 01006KT 07/M02 A3035 RMK A01 T00741018  RH  052%=      5-min Rain = 0
KMC1 020352Z 00006KT 07/M02 A3035 RMK A01 T00741019  RH  052%=      5-min Rain = 0
KMC1 020353Z 00006KT 07/M02 A3035 RMK A01 T00741019  RH  052%=      5-min Rain = 0
KMC1 020354Z 01006KT 07/M02 A3035 RMK A01 T00731019  RH  052%=      5-min Rain = 0
KMC1 020355Z 01004KT 07/M02 A3035 RMK A01 T00731020  RH  052%=      5-min Rain = 0
KMC1 020356Z 01005KT 07/M02 A3036 RMK A01 T00721019  RH  052%=      5-min Rain = 0
KMC1 020357Z 01005KT 07/M02 A3036 RMK A01 T00711020  RH  052%=      5-min Rain = 0
KMC1 020358Z 01005KT 07/M02 A3036 RMK A01 T00711020  RH  052%=      5-min Rain = 0
KMC1 020359Z 00005KT 07/M02 A3036 RMK A01 T00711020  RH  052%=      5-min Rain = 0
KMC1 020400Z 00005KT 07/M02 A3036 RMK A01 T00711020  RH  052%=      5-min Rain = 0
KMC1 020401Z 01004KT 07/M02 A3036 RMK A01 T00711021  RH  052%=      5-min Rain = 0
KMC1 020402Z 01005KT 07/M02 A3036 RMK A01 T00701020  RH  052%=      5-min Rain = 0
KMC1 020403Z 00004KT 07/M02 A3036 RMK A01 T00701020  RH  053%=      5-min Rain = 0
KMC1 020404Z 00004KT 07/M02 A3036 RMK A01 T00691020  RH  053%=      5-min Rain = 0
KMC1 020405Z 00004KT 07/M02 A3036 RMK A01 T00691020  RH  053%=      5-min Rain = 0
KMC1 020406Z 36004KT 07/M02 A3036 RMK A01 T00681020  RH  054%=      5-min Rain = 0
KMC1 020407Z 35003KT 07/M02 A3036 RMK A01 T00671019  RH  054%=      5-min Rain = 0
KMC1 020408Z 36003KT 07/M02 A3036 RMK A01 T00661019  RH  054%=      5-min Rain = 0
KMC1 020409Z 35003KT 07/M02 A3036 RMK A01 T00651019  RH  055%=      5-min Rain = 0
KMC1 020410Z 35003KT 06/M02 A3036 RMK A01 T00641019  RH  055%=      5-min Rain = 0
KMC1 020411Z 35003KT 06/M02 A3036 RMK A01 T00631019  RH  056%=      5-min Rain = 0
KMC1 020412Z 36003KT 06/M02 A3036 RMK A01 T00631020  RH  056%=      5-min Rain = 0
KMC1 020413Z 36003KT 06/M02 A3036 RMK A01 T00631020  RH  056%=      5-min Rain = 0
KMC1 020414Z 36003KT 06/M02 A3036 RMK A01 T00631019  RH  056%=      5-min Rain = 0
KMC1 020415Z 36004KT 06/M02 A3036 RMK A01 T00621019  RH  056%=      5-min Rain = 0
KMC1 020416Z 35004KT 06/M02 A3036 RMK A01 T00621020  RH  056%=      5-min Rain = 0
KMC1 020417Z 35004KT 06/M02 A3036 RMK A01 T00621019  RH  056%=      5-min Rain = 0
KMC1 020418Z 35004KT 06/M02 A3036 RMK A01 T00611019  RH  057%=      5-min Rain = 0
KMC1 020419Z 35004KT 06/M02 A3036 RMK A01 T00601019  RH  057%=      5-min Rain = 0
KMC1 020420Z 34004KT 06/M02 A3036 RMK A01 T00601020  RH  057%=      5-min Rain = 0
KMC1 020421Z 34003KT 06/M02 A3036 RMK A01 T00591021  RH  056%=      5-min Rain = 0
KMC1 020422Z 34004KT 06/M02 A3036 RMK A01 T00601021  RH  056%=      5-min Rain = 0
KMC1 020423Z 34004KT 06/M02 A3036 RMK A01 T00601021  RH  056%=      5-min Rain = 0
KMC1 020424Z 34004KT 06/M02 A3036 RMK A01 T00601022  RH  056%=      5-min Rain = 0
KMC1 020425Z 33004KT 06/M02 A3036 RMK A01 T00591022  RH  056%=      5-min Rain = 0
KMC1 020426Z 33004KT 06/M02 A3036 RMK A01 T00591021  RH  056%=      5-min Rain = 0
KMC1 020427Z 33003KT 06/M02 A3036 RMK A01 T00591022  RH  056%=      5-min Rain = 0
KMC1 020428Z 34002KT 06/M02 A3036 RMK A01 T00581022  RH  056%=      5-min Rain = 0
KMC1 020429Z 33003KT 06/M02 A3036 RMK A01 T00581023  RH  056%=      5-min Rain = 0
KMC1 020430Z 34003KT 06/M02 A3036 RMK A01 T00571023  RH  056%=      5-min Rain = 0
KMC1 020431Z 34003KT 06/M02 A3036 RMK A01 T00571023  RH  056%=      5-min Rain = 0
KMC1 020432Z 34003KT 06/M02 A3036 RMK A01 T00571024  RH  056%=      5-min Rain = 0
KMC1 020433Z 34003KT 06/M02 A3036 RMK A01 T00571024  RH  056%=      5-min Rain = 0
KMC1 020434Z 34003KT 06/M02 A3036 RMK A01 T00571024  RH  056%=      5-min Rain = 0
KMC1 020435Z 34003KT 06/M02 A3036 RMK A01 T00571023  RH  056%=      5-min Rain = 0
KMC1 020436Z 34004KT 06/M02 A3036 RMK A01 T00571024  RH  056%=      5-min Rain = 0
KMC1 020437Z 35002KT 06/M02 A3036 RMK A01 T00571024  RH  056%=      5-min Rain = 0
KMC1 020438Z 35004KT 06/M02 A3036 RMK A01 T00571023  RH  056%=      5-min Rain = 0
KMC1 020439Z 35004KT 06/M02 A3036 RMK A01 T00571023  RH  056%=      5-min Rain = 0
KMC1 020440Z 35003KT 06/M02 A3036 RMK A01 T00571023  RH  056%=      5-min Rain = 0
KMC1 020441Z 35004KT 06/M02 A3036 RMK A01 T00571023  RH  056%=      5-min Rain = 0
KMC1 020442Z 35004KT 06/M02 A3035 RMK A01 T00571022  RH  057%=      5-min Rain = 0
KMC1 020443Z 35004KT 06/M02 A3035 RMK A01 T00561022  RH  058%=      5-min Rain = 0
KMC1 020444Z 34005KT 06/M02 A3035 RMK A01 T00551022  RH  058%=      5-min Rain = 0
KMC1 020445Z 34004KT 06/M02 A3035 RMK A01 T00551022  RH  058%=      5-min Rain = 0
KMC1 020446Z 33005KT 06/M02 A3035 RMK A01 T00551022  RH  058%=      5-min Rain = 0
KMC1 020447Z 33005KT 05/M02 A3036 RMK A01 T00541022  RH  058%=      5-min Rain = 0
KMC1 020448Z 34005KT 05/M02 A3036 RMK A01 T00531023  RH  058%=      5-min Rain = 0
KMC1 020449Z 33004KT 05/M02 A3035 RMK A01 T00531023  RH  058%=      5-min Rain = 0
KMC1 020450Z 33004KT 05/M02 A3036 RMK A01 T00521023  RH  059%=      5-min Rain = 0
KMC1 020451Z 33005KT 05/M02 A3036 RMK A01 T00521023  RH  058%=      5-min Rain = 0
KMC1 020452Z 34004KT 05/M02 A3036 RMK A01 T00521024  RH  058%=      5-min Rain = 0
KMC1 020453Z 34005KT 05/M02 A3036 RMK A01 T00521024  RH  058%=      5-min Rain = 0
KMC1 020454Z 35004KT 05/M02 A3036 RMK A01 T00521024  RH  058%=      5-min Rain = 0
KMC1 020455Z 35004KT 05/M02 A3036 RMK A01 T00521024  RH  058%=      5-min Rain = 0
KMC1 020456Z 35004KT 05/M02 A3035 RMK A01 T00511023  RH  058%=      5-min Rain = 0
KMC1 020457Z 36004KT 05/M02 A3035 RMK A01 T00511023  RH  059%=      5-min Rain = 0
KMC1 020458Z 00003KT 05/M02 A3035 RMK A01 T00501023  RH  059%=      5-min Rain = 0
KMC1 020459Z 36004KT 05/M02 A3035 RMK A01 T00501022  RH  059%=      5-min Rain = 0
KMC1 020500Z 00004KT 05/M02 A3035 RMK A01 T00501023  RH  059%=      5-min Rain = 0
KMC1 020501Z 00003KT 05/M02 A3035 RMK A01 T00491023  RH  060%=      5-min Rain = 0
KMC1 020502Z 36004KT 05/M02 A3035 RMK A01 T00491023  RH  059%=      5-min Rain = 0
KMC1 020503Z 36004KT 05/M02 A3035 RMK A01 T00491024  RH  059%=      5-min Rain = 0
KMC1 020504Z 35003KT 05/M02 A3035 RMK A01 T00481023  RH  060%=      5-min Rain = 0
KMC1 020505Z 36002KT 05/M02 A3035 RMK A01 T00481023  RH  060%=      5-min Rain = 0
KMC1 020506Z 35003KT 05/M02 A3035 RMK A01 T00471023  RH  060%=      5-min Rain = 0
KMC1 020507Z 35002KT 05/M02 A3036 RMK A01 T00461024  RH  060%=      5-min Rain = 0
KMC1 020508Z 33002KT 05/M03 A3036 RMK A01 T00461025  RH  060%=      5-min Rain = 0
KMC1 020509Z 33002KT 05/M03 A3036 RMK A01 T00461025  RH  060%=      5-min Rain = 0
KMC1 020510Z 33002KT 05/M03 A3036 RMK A01 T00451026  RH  060%=      5-min Rain = 0
KMC1 020511Z 33001KT 05/M03 A3036 RMK A01 T00451026  RH  060%=      5-min Rain = 0
KMC1 020512Z 33001KT 05/M03 A3036 RMK A01 T00451025  RH  060%=      5-min Rain = 0
KMC1 020513Z 33002KT 05/M03 A3036 RMK A01 T00451025  RH  060%=      5-min Rain = 0
KMC1 020514Z 35001KT 05/M03 A3036 RMK A01 T00451025  RH  060%=      5-min Rain = 0
KMC1 020515Z 34002KT 04/M03 A3036 RMK A01 T00441025  RH  061%=      5-min Rain = 0
KMC1 020516Z 35001KT 04/M03 A3036 RMK A01 T00441025  RH  061%=      5-min Rain = 0
KMC1 020517Z 34001KT 04/M03 A3036 RMK A01 T00431025  RH  061%=      5-min Rain = 0
KMC1 020518Z 34001KT 04/M03 A3036 RMK A01 T00431026  RH  061%=      5-min Rain = 0
KMC1 020519Z 34001KT 04/M03 A3035 RMK A01 T00421026  RH  061%=      5-min Rain = 0
KMC1 020520Z 33000KT 04/M03 A3035 RMK A01 T00421025  RH  062%=      5-min Rain = 0
KMC1 020521Z 33001KT 04/M03 A3035 RMK A01 T00411026  RH  062%=      5-min Rain = 0
KMC1 020522Z 32001KT 04/M03 A3035 RMK A01 T00401026  RH  062%=      5-min Rain = 0
KMC1 020523Z 33001KT 04/M03 A3035 RMK A01 T00391026  RH  063%=      5-min Rain = 0
KMC1 020524Z 33001KT 04/M03 A3035 RMK A01 T00381027  RH  063%=      5-min Rain = 0
KMC1 020525Z 32001KT 04/M03 A3035 RMK A01 T00381027  RH  063%=      5-min Rain = 0
KMC1 020526Z 32001KT 04/M03 A3035 RMK A01 T00381027  RH  063%=      5-min Rain = 0
KMC1 020527Z 32001KT 04/M03 A3035 RMK A01 T00371027  RH  063%=      5-min Rain = 0
KMC1 020528Z 33001KT 04/M03 A3035 RMK A01 T00371027  RH  063%=      5-min Rain = 0
KMC1 020529Z 32001KT 04/M03 A3035 RMK A01 T00371027  RH  063%=      5-min Rain = 0
KMC1 020530Z 31001KT 04/M03 A3035 RMK A01 T00371027  RH  063%=      5-min Rain = 0
KMC1 020531Z 31001KT 04/M03 A3035 RMK A01 T00361027  RH  063%=      5-min Rain = 0
KMC1 020532Z 32002KT 04/M03 A3035 RMK A01 T00361027  RH  063%=      5-min Rain = 0
KMC1 020533Z 32002KT 04/M03 A3035 RMK A01 T00361027  RH  063%=      5-min Rain = 0
KMC1 020534Z 32003KT 04/M03 A3035 RMK A01 T00361027  RH  063%=      5-min Rain = 0
KMC1 020535Z 31003KT 04/M03 A3035 RMK A01 T00361028  RH  063%=      5-min Rain = 0
KMC1 020536Z 31003KT 04/M03 A3035 RMK A01 T00361027  RH  063%=      5-min Rain = 0
KMC1 020537Z 31003KT 04/M03 A3035 RMK A01 T00361027  RH  063%=      5-min Rain = 0
KMC1 020538Z 31003KT 04/M03 A3035 RMK A01 T00361027  RH  063%=      5-min Rain = 0
KMC1 020539Z 31003KT 04/M03 A3035 RMK A01 T00361027  RH  063%=      5-min Rain = 0
KMC1 020540Z 31003KT 04/M03 A3035 RMK A01 T00361027  RH  063%=      5-min Rain = 0
KMC1 020541Z 31003KT 04/M03 A3035 RMK A01 T00361028  RH  063%=      5-min Rain = 0
KMC1 020542Z 31003KT 04/M03 A3035 RMK A01 T00371027  RH  063%=      5-min Rain = 0
KMC1 020543Z 31002KT 04/M03 A3035 RMK A01 T00371027  RH  063%=      5-min Rain = 0
KMC1 020544Z 31002KT 04/M03 A3035 RMK A01 T00371026  RH  063%=      5-min Rain = 0
KMC1 020545Z 31002KT 04/M03 A3035 RMK A01 T00361027  RH  064%=      5-min Rain = 0
KMC1 020546Z 31002KT 04/M03 A3035 RMK A01 T00361028  RH  063%=      5-min Rain = 0
KMC1 020547Z 30003KT 04/M03 A3035 RMK A01 T00361029  RH  063%=      5-min Rain = 0
KMC1 020548Z 30003KT 04/M03 A3035 RMK A01 T00361028  RH  063%=      5-min Rain = 0
KMC1 020549Z 30002KT 04/M03 A3035 RMK A01 T00361027  RH  064%=      5-min Rain = 0
KMC1 020550Z 31002KT 04/M03 A3035 RMK A01 T00361026  RH  064%=      5-min Rain = 0
KMC1 020551Z 30002KT 04/M03 A3035 RMK A01 T00351026  RH  064%=      5-min Rain = 0
KMC1 020552Z 30002KT 04/M03 A3035 RMK A01 T00351027  RH  064%=      5-min Rain = 0
KMC1 020553Z 30002KT 04/M03 A3035 RMK A01 T00351027  RH  064%=      5-min Rain = 0
KMC1 020554Z 30002KT 04/M03 A3035 RMK A01 T00351028  RH  063%=      5-min Rain = 0
KMC1 020555Z 29002KT 04/M03 A3035 RMK A01 T00351028  RH  063%=      5-min Rain = 0
KMC1 020556Z 29002KT 04/M03 A3035 RMK A01 T00351028  RH  063%=      5-min Rain = 0
KMC1 020557Z 28003KT 03/M03 A3035 RMK A01 T00341028  RH  064%=      5-min Rain = 0
KMC1 020558Z 29003KT 03/M03 A3035 RMK A01 T00341028  RH  064%=      5-min Rain = 0
KMC1 020559Z 29002KT 03/M03 A3035 RMK A01 T00331028  RH  064%=      5-min Rain = 0

Page generated in 0.1484 seconds.